PWSweather.com
Personal Weather Stations
Station Observations
EI4HQ
Cork Harbour, CobhIE

Cork HarbourCobhIE

Lat: 51.85, Lon: -8.29

Elevation: 252

Station Type: Davis Vantage Pro2

http://www.corkharbourweather.ie

High Low Average
Temperature 44.4°F6.9°F 42.1°F5.6°F 43.2°F6.2°F
Dew Point 41.0°F5.0°F 33.8°F1.0°F 36.5°F2.5°F
Winds 28.0 mph SSE45.1 mph SSE 14.0 mph 22.5 mph 22.1 mph 35.6 mph
Wind Gusts 42.0 mph67.6 mph 22.0 mph35.4 mph 33.7 mph54.2 mph
Humidity 92% 71% 77%
Pressure 30.04 in1017.30 in 29.88 in1011.90 in -
Precipitation 0.39 in9.90 in - -
Hour Temp Dew Point Humidity Winds Wind Gusts Pressure Precip Precip Rate Daily Precip Total
12:00 AM 44.4°F6.9°C 40.5°F4.7°C 86% 19.0 mph SSE30.6 kmh SSE 30.0 mph48.3 kmh 30.03 in1016.9 mb 0.00 in0.0 mm 0.00 in0.0 mm 0.00 in0.0 mm
12:03 AM 44.4°F6.9°C 40.8°F4.9°C 87% 20.0 mph SSE32.2 kmh SSE 30.0 mph48.3 kmh 30.03 in1016.9 mb 0.00 in0.0 mm 0.00 in0.0 mm 0.00 in0.0 mm
12:06 AM 44.4°F6.9°C 40.8°F4.9°C 87% 19.0 mph SSE30.6 kmh SSE 30.0 mph48.3 kmh 30.03 in1016.9 mb 0.00 in0.0 mm 0.00 in0.0 mm 0.00 in0.0 mm
12:09 AM 44.4°F6.9°C 41.0°F5.0°C 88% 19.0 mph SSE30.6 kmh SSE 28.0 mph45.1 kmh 30.03 in1016.9 mb 0.00 in0.0 mm 0.00 in0.0 mm 0.00 in0.0 mm
12:12 AM 44.2°F6.8°C 41.0°F5.0°C 88% 19.0 mph SSE30.6 kmh SSE 28.0 mph45.1 kmh 30.03 in1016.9 mb 0.00 in0.0 mm 0.00 in0.0 mm 0.00 in0.0 mm
12:15 AM 44.2°F6.8°C 40.8°F4.9°C 88% 19.0 mph SSE30.6 kmh SSE 28.0 mph45.1 kmh 30.03 in1016.9 mb 0.00 in0.0 mm 0.00 in0.0 mm 0.00 in0.0 mm
12:18 AM 43.9°F6.6°C 40.6°F4.8°C 88% 19.0 mph SSE30.6 kmh SSE 28.0 mph45.1 kmh 30.03 in1016.9 mb 0.00 in0.0 mm 0.00 in0.0 mm 0.00 in0.0 mm
12:21 AM 43.7°F6.5°C 40.5°F4.7°C 88% 18.0 mph SSE29.0 kmh SSE 28.0 mph45.1 kmh 30.03 in1016.9 mb 0.00 in0.0 mm 0.00 in0.0 mm 0.00 in0.0 mm
12:24 AM 43.5°F6.4°C 40.3°F4.6°C 88% 17.0 mph SSE27.4 kmh SSE 27.0 mph43.5 kmh 30.04 in1017.3 mb 0.00 in0.0 mm 0.00 in0.0 mm 0.00 in0.0 mm
12:27 AM 43.5°F6.4°C 40.1°F4.5°C 88% 16.0 mph SSE25.7 kmh SSE 23.0 mph37.0 kmh 30.03 in1016.9 mb 0.00 in0.0 mm 0.00 in0.0 mm 0.00 in0.0 mm
12:30 AM 43.3°F6.3°C 40.1°F4.5°C 88% 16.0 mph SSE25.7 kmh SSE 22.0 mph35.4 kmh 30.03 in1016.9 mb 0.00 in0.0 mm 0.00 in0.0 mm 0.00 in0.0 mm
12:33 AM 43.3°F6.3°C 39.9°F4.4°C 88% 15.0 mph SSE24.1 kmh SSE 22.0 mph35.4 kmh 30.03 in1016.9 mb 0.00 in0.0 mm 0.00 in0.0 mm 0.00 in0.0 mm
12:36 AM 43.3°F6.3°C 39.9°F4.4°C 88% 15.0 mph SSE24.1 kmh SSE 22.0 mph35.4 kmh 30.03 in1016.9 mb 0.00 in0.0 mm 0.00 in0.0 mm 0.00 in0.0 mm
12:39 AM 43.3°F6.3°C 39.9°F4.4°C 88% 15.0 mph SSE24.1 kmh SSE 22.0 mph35.4 kmh 30.03 in1016.9 mb 0.00 in0.0 mm 0.00 in0.0 mm 0.00 in0.0 mm
12:42 AM 43.3°F6.3°C 39.9°F4.4°C 88% 15.0 mph SSE24.1 kmh SSE 22.0 mph35.4 kmh 30.03 in1016.9 mb 0.00 in0.0 mm 0.00 in0.0 mm 0.00 in0.0 mm
12:45 AM 43.2°F6.2°C 39.6°F4.2°C 87% 14.0 mph SSE22.5 kmh SSE 22.0 mph35.4 kmh 30.03 in1016.9 mb 0.00 in0.0 mm 0.00 in0.0 mm 0.00 in0.0 mm
12:48 AM 43.2°F6.2°C 39.2°F4.0°C 86% 15.0 mph SSE24.1 kmh SSE 23.0 mph37.0 kmh 30.03 in1016.9 mb 0.00 in0.0 mm 0.00 in0.0 mm 0.00 in0.0 mm
12:51 AM 43.0°F6.1°C 39.0°F3.9°C 86% 16.0 mph SE25.7 kmh SE 26.0 mph41.8 kmh 30.03 in1016.9 mb 0.00 in0.0 mm 0.00 in0.0 mm 0.00 in0.0 mm
12:54 AM 43.0°F6.1°C 39.4°F4.1°C 87% 17.0 mph SE27.4 kmh SE 32.0 mph51.5 kmh 30.03 in1016.9 mb 0.00 in0.0 mm 0.00 in0.0 mm 0.00 in0.0 mm
12:57 AM 43.0°F6.1°C 39.6°F4.2°C 88% 18.0 mph SE29.0 kmh SE 32.0 mph51.5 kmh 30.03 in1016.9 mb 0.00 in0.0 mm 0.00 in0.0 mm 0.00 in0.0 mm
01:00 AM 43.0°F6.1°C 39.6°F4.2°C 88% 19.0 mph SE30.6 kmh SE 32.0 mph51.5 kmh 30.03 in1016.9 mb 0.00 in0.0 mm 0.00 in0.0 mm 0.00 in0.0 mm
01:03 AM 42.8°F6.0°C 39.6°F4.2°C 88% 20.0 mph SE32.2 kmh SE 32.0 mph51.5 kmh 30.02 in1016.6 mb 0.00 in0.0 mm 0.00 in0.0 mm 0.00 in0.0 mm
01:06 AM 42.6°F5.9°C 39.7°F4.3°C 89% 20.0 mph SE32.2 kmh SE 28.0 mph45.1 kmh 30.03 in1016.9 mb 0.00 in0.0 mm 0.00 in0.0 mm 0.00 in0.0 mm
01:09 AM 42.6°F5.9°C 39.4°F4.1°C 88% 20.0 mph SSE32.2 kmh SSE 29.0 mph46.7 kmh 30.03 in1016.9 mb 0.00 in0.0 mm 0.00 in0.0 mm 0.00 in0.0 mm
01:12 AM 42.6°F5.9°C 39.6°F4.2°C 89% 20.0 mph SSE32.2 kmh SSE 30.0 mph48.3 kmh 30.03 in1016.9 mb 0.00 in0.0 mm 0.00 in0.0 mm 0.00 in0.0 mm
01:15 AM 42.4°F5.8°C 39.6°F4.2°C 89% 19.0 mph SSE30.6 kmh SSE 30.0 mph48.3 kmh 30.02 in1016.6 mb 0.00 in0.0 mm 0.00 in0.0 mm 0.00 in0.0 mm
01:18 AM 42.6°F5.9°C 39.6°F4.2°C 89% 19.0 mph SSE30.6 kmh SSE 30.0 mph48.3 kmh 30.03 in1016.9 mb 0.00 in0.0 mm 0.00 in0.0 mm 0.00 in0.0 mm
01:21 AM 42.6°F5.9°C 39.6°F4.2°C 89% 19.0 mph SSE30.6 kmh SSE 31.0 mph49.9 kmh 30.02 in1016.6 mb 0.00 in0.0 mm 0.00 in0.0 mm 0.00 in0.0 mm
01:24 AM 42.6°F5.9°C 39.6°F4.2°C 89% 20.0 mph SSE32.2 kmh SSE 31.0 mph49.9 kmh 30.02 in1016.6 mb 0.01 in0.3 mm 0.20 in5.1 mm 0.01 in0.3 mm
01:27 AM 42.6°F5.9°C 39.6°F4.2°C 89% 20.0 mph SSE32.2 kmh SSE 31.0 mph49.9 kmh 30.03 in1016.9 mb 0.01 in0.3 mm 0.00 in0.0 mm 0.01 in0.3 mm
01:30 AM 42.4°F5.8°C 39.6°F4.2°C 89% 19.0 mph SSE30.6 kmh SSE 29.0 mph46.7 kmh 30.02 in1016.6 mb 0.01 in0.3 mm 0.00 in0.0 mm 0.01 in0.3 mm
01:33 AM 42.4°F5.8°C 39.7°F4.3°C 90% 17.0 mph SSE27.4 kmh SSE 26.0 mph41.8 kmh 30.03 in1016.9 mb 0.01 in0.3 mm 0.00 in0.0 mm 0.01 in0.3 mm
01:36 AM 42.4°F5.8°C 39.7°F4.3°C 90% 15.0 mph SSE24.1 kmh SSE 26.0 mph41.8 kmh 30.03 in1016.9 mb 0.01 in0.3 mm 0.00 in0.0 mm 0.01 in0.3 mm
01:39 AM 42.4°F5.8°C 39.7°F4.3°C 90% 14.0 mph SSE22.5 kmh SSE 22.0 mph35.4 kmh 30.02 in1016.6 mb 0.01 in0.3 mm 0.00 in0.0 mm 0.01 in0.3 mm
01:42 AM 42.4°F5.8°C 39.7°F4.3°C 90% 14.0 mph SSE22.5 kmh SSE 22.0 mph35.4 kmh 30.02 in1016.6 mb 0.01 in0.3 mm 0.00 in0.0 mm 0.01 in0.3 mm
01:45 AM 42.4°F5.8°C 39.7°F4.3°C 90% 14.0 mph SSE22.5 kmh SSE 22.0 mph35.4 kmh 30.02 in1016.6 mb 0.02 in0.5 mm 0.20 in5.1 mm 0.02 in0.5 mm
01:48 AM 42.4°F5.8°C 39.7°F4.3°C 90% 15.0 mph SSE24.1 kmh SSE 23.0 mph37.0 kmh 30.02 in1016.6 mb 0.02 in0.5 mm 0.00 in0.0 mm 0.02 in0.5 mm
01:51 AM 42.6°F5.9°C 39.9°F4.4°C 90% 17.0 mph SSE27.4 kmh SSE 25.0 mph40.2 kmh 30.02 in1016.6 mb 0.02 in0.5 mm 0.00 in0.0 mm 0.02 in0.5 mm
01:54 AM 42.6°F5.9°C 39.9°F4.4°C 90% 18.0 mph SSE29.0 kmh SSE 28.0 mph45.1 kmh 30.02 in1016.6 mb 0.02 in0.5 mm 0.00 in0.0 mm 0.02 in0.5 mm
01:57 AM 42.8°F6.0°C 39.7°F4.3°C 89% 20.0 mph SSE32.2 kmh SSE 31.0 mph49.9 kmh 30.02 in1016.6 mb 0.02 in0.5 mm 0.00 in0.0 mm 0.02 in0.5 mm
02:00 AM 43.0°F6.1°C 39.9°F4.4°C 89% 21.0 mph SSE33.8 kmh SSE 32.0 mph51.5 kmh 30.02 in1016.6 mb 0.02 in0.5 mm 0.00 in0.0 mm 0.02 in0.5 mm
02:03 AM 43.0°F6.1°C 39.7°F4.3°C 88% 21.0 mph SSE33.8 kmh SSE 32.0 mph51.5 kmh 30.01 in1016.3 mb 0.02 in0.5 mm 0.00 in0.0 mm 0.02 in0.5 mm
02:06 AM 43.2°F6.2°C 41.0°F5.0°C 92% 21.0 mph SSE33.8 kmh SSE 32.0 mph51.5 kmh 30.01 in1016.3 mb 0.02 in0.5 mm 0.00 in0.0 mm 0.02 in0.5 mm
02:09 AM 43.2°F6.2°C 39.6°F4.2°C 87% 22.0 mph SSE35.4 kmh SSE 32.0 mph51.5 kmh 30.01 in1016.3 mb 0.02 in0.5 mm 0.00 in0.0 mm 0.02 in0.5 mm
02:12 AM 43.2°F6.2°C 39.6°F4.2°C 87% 21.0 mph SSE33.8 kmh SSE 33.0 mph53.1 kmh 30.01 in1016.3 mb 0.02 in0.5 mm 0.00 in0.0 mm 0.02 in0.5 mm
02:15 AM 43.2°F6.2°C 39.2°F4.0°C 86% 21.0 mph SSE33.8 kmh SSE 33.0 mph53.1 kmh 30.01 in1016.3 mb 0.02 in0.5 mm 0.00 in0.0 mm 0.02 in0.5 mm
02:18 AM 43.2°F6.2°C 39.2°F4.0°C 86% 21.0 mph SSE33.8 kmh SSE 33.0 mph53.1 kmh 30.01 in1016.3 mb 0.02 in0.5 mm 0.00 in0.0 mm 0.02 in0.5 mm
02:21 AM 43.2°F6.2°C 39.4°F4.1°C 86% 22.0 mph SSE35.4 kmh SSE 32.0 mph51.5 kmh 30.01 in1016.3 mb 0.01 in0.3 mm 0.00 in0.0 mm 0.02 in0.5 mm
02:24 AM 43.2°F6.2°C 39.2°F4.0°C 86% 22.0 mph SSE35.4 kmh SSE 31.0 mph49.9 kmh 30.01 in1016.3 mb 0.01 in0.3 mm 0.00 in0.0 mm 0.02 in0.5 mm
02:27 AM 43.2°F6.2°C 39.2°F4.0°C 86% 20.0 mph SSE32.2 kmh SSE 31.0 mph49.9 kmh 30.01 in1016.3 mb 0.01 in0.3 mm 0.00 in0.0 mm 0.02 in0.5 mm
02:30 AM 43.0°F6.1°C 38.8°F3.8°C 85% 20.0 mph SSE32.2 kmh SSE 29.0 mph46.7 kmh 30.01 in1016.3 mb 0.01 in0.3 mm 0.00 in0.0 mm 0.02 in0.5 mm
02:33 AM 43.0°F6.1°C 38.8°F3.8°C 85% 19.0 mph SSE30.6 kmh SSE 30.0 mph48.3 kmh 30.01 in1016.3 mb 0.01 in0.3 mm 0.00 in0.0 mm 0.02 in0.5 mm
02:36 AM 43.0°F6.1°C 38.8°F3.8°C 85% 19.0 mph SSE30.6 kmh SSE 30.0 mph48.3 kmh 30.00 in1015.9 mb 0.01 in0.3 mm 0.00 in0.0 mm 0.02 in0.5 mm
02:39 AM 43.0°F6.1°C 38.8°F3.8°C 85% 20.0 mph SSE32.2 kmh SSE 30.0 mph48.3 kmh 30.00 in1015.9 mb 0.01 in0.3 mm 0.00 in0.0 mm 0.02 in0.5 mm
02:42 AM 43.2°F6.2°C 38.8°F3.8°C 85% 20.0 mph SSE32.2 kmh SSE 30.0 mph48.3 kmh 30.00 in1015.9 mb 0.01 in0.3 mm 0.00 in0.0 mm 0.02 in0.5 mm
02:45 AM 43.0°F6.1°C 38.8°F3.8°C 85% 22.0 mph SSE35.4 kmh SSE 40.0 mph64.4 kmh 30.00 in1015.9 mb 0.00 in0.0 mm 0.00 in0.0 mm 0.02 in0.5 mm
02:48 AM 43.0°F6.1°C 38.8°F3.8°C 85% 22.0 mph SSE35.4 kmh SSE 40.0 mph64.4 kmh 30.00 in1015.9 mb 0.00 in0.0 mm 0.00 in0.0 mm 0.02 in0.5 mm
02:51 AM 43.0°F6.1°C 38.5°F3.6°C 84% 23.0 mph SSE37.0 kmh SSE 40.0 mph64.4 kmh 30.00 in1015.9 mb 0.00 in0.0 mm 0.00 in0.0 mm 0.02 in0.5 mm
02:54 AM 43.0°F6.1°C 38.5°F3.6°C 84% 23.0 mph SSE37.0 kmh SSE 40.0 mph64.4 kmh 30.00 in1015.9 mb 0.00 in0.0 mm 0.00 in0.0 mm 0.02 in0.5 mm
02:57 AM 43.0°F6.1°C 38.5°F3.6°C 84% 22.0 mph SSE35.4 kmh SSE 32.0 mph51.5 kmh 30.00 in1015.9 mb 0.00 in0.0 mm 0.00 in0.0 mm 0.02 in0.5 mm
03:00 AM 42.8°F6.0°C 38.3°F3.5°C 84% 22.0 mph SSE35.4 kmh SSE 32.0 mph51.5 kmh 30.00 in1015.9 mb 0.00 in0.0 mm 0.00 in0.0 mm 0.02 in0.5 mm
03:03 AM 42.8°F6.0°C 38.3°F3.5°C 84% 21.0 mph SSE33.8 kmh SSE 31.0 mph49.9 kmh 30.00 in1015.9 mb 0.00 in0.0 mm 0.00 in0.0 mm 0.02 in0.5 mm
03:06 AM 42.6°F5.9°C 38.1°F3.4°C 84% 22.0 mph SSE35.4 kmh SSE 32.0 mph51.5 kmh 30.00 in1015.9 mb 0.00 in0.0 mm 0.00 in0.0 mm 0.02 in0.5 mm
03:09 AM 42.6°F5.9°C 37.9°F3.3°C 83% 22.0 mph SSE35.4 kmh SSE 32.0 mph51.5 kmh 30.00 in1015.9 mb 0.00 in0.0 mm 0.00 in0.0 mm 0.02 in0.5 mm
03:12 AM 42.6°F5.9°C 37.9°F3.3°C 83% 23.0 mph SSE37.0 kmh SSE 32.0 mph51.5 kmh 30.00 in1015.9 mb 0.00 in0.0 mm 0.00 in0.0 mm 0.02 in0.5 mm
03:15 AM 42.6°F5.9°C 37.9°F3.3°C 83% 21.0 mph SSE33.8 kmh SSE 32.0 mph51.5 kmh 30.00 in1015.9 mb 0.00 in0.0 mm 0.00 in0.0 mm 0.02 in0.5 mm
03:18 AM 42.6°F5.9°C 37.8°F3.2°C 83% 20.0 mph SSE32.2 kmh SSE 32.0 mph51.5 kmh 30.00 in1015.9 mb 0.00 in0.0 mm 0.00 in0.0 mm 0.02 in0.5 mm
03:21 AM 42.6°F5.9°C 37.4°F3.0°C 82% 20.0 mph SSE32.2 kmh SSE 32.0 mph51.5 kmh 30.00 in1015.9 mb 0.00 in0.0 mm 0.00 in0.0 mm 0.02 in0.5 mm
03:24 AM 42.4°F5.8°C 37.8°F3.2°C 83% 19.0 mph SSE30.6 kmh SSE 32.0 mph51.5 kmh 29.99 in1015.6 mb 0.00 in0.0 mm 0.00 in0.0 mm 0.02 in0.5 mm
03:27 AM 42.4°F5.8°C 37.6°F3.1°C 83% 20.0 mph SSE32.2 kmh SSE 32.0 mph51.5 kmh 29.99 in1015.6 mb 0.00 in0.0 mm 0.00 in0.0 mm 0.02 in0.5 mm
03:30 AM 42.4°F5.8°C 37.2°F2.9°C 82% 20.0 mph SSE32.2 kmh SSE 29.0 mph46.7 kmh 29.99 in1015.6 mb 0.00 in0.0 mm 0.00 in0.0 mm 0.02 in0.5 mm
03:33 AM 42.3°F5.7°C 37.2°F2.9°C 82% 21.0 mph SSE33.8 kmh SSE 30.0 mph48.3 kmh 29.99 in1015.6 mb 0.00 in0.0 mm 0.00 in0.0 mm 0.02 in0.5 mm
03:36 AM 42.3°F5.7°C 37.2°F2.9°C 82% 21.0 mph SSE33.8 kmh SSE 30.0 mph48.3 kmh 29.99 in1015.6 mb 0.00 in0.0 mm 0.00 in0.0 mm 0.02 in0.5 mm
03:39 AM 42.3°F5.7°C 37.2°F2.9°C 82% 21.0 mph SSE33.8 kmh SSE 31.0 mph49.9 kmh 29.99 in1015.6 mb 0.00 in0.0 mm 0.00 in0.0 mm 0.02 in0.5 mm
03:42 AM 42.4°F5.8°C 37.2°F2.9°C 82% 21.0 mph SSE33.8 kmh SSE 31.0 mph49.9 kmh 29.99 in1015.6 mb 0.00 in0.0 mm 0.00 in0.0 mm 0.02 in0.5 mm
03:45 AM 42.4°F5.8°C 37.2°F2.9°C 82% 21.0 mph SSE33.8 kmh SSE 31.0 mph49.9 kmh 29.99 in1015.6 mb 0.00 in0.0 mm 0.00 in0.0 mm 0.02 in0.5 mm
03:48 AM 42.4°F5.8°C 37.2°F2.9°C 82% 20.0 mph SSE32.2 kmh SSE 31.0 mph49.9 kmh 29.99 in1015.6 mb 0.00 in0.0 mm 0.00 in0.0 mm 0.02 in0.5 mm
03:51 AM 42.4°F5.8°C 37.0°F2.8°C 81% 19.0 mph SSE30.6 kmh SSE 31.0 mph49.9 kmh 29.99 in1015.6 mb 0.00 in0.0 mm 0.00 in0.0 mm 0.02 in0.5 mm
03:54 AM 42.3°F5.7°C 36.9°F2.7°C 81% 19.0 mph SSE30.6 kmh SSE 29.0 mph46.7 kmh 29.98 in1015.2 mb 0.00 in0.0 mm 0.00 in0.0 mm 0.02 in0.5 mm
03:57 AM 42.3°F5.7°C 36.5°F2.5°C 80% 20.0 mph SSE32.2 kmh SSE 30.0 mph48.3 kmh 29.98 in1015.2 mb 0.00 in0.0 mm 0.00 in0.0 mm 0.02 in0.5 mm
04:00 AM 42.3°F5.7°C 36.5°F2.5°C 80% 21.0 mph SSE33.8 kmh SSE 30.0 mph48.3 kmh 29.98 in1015.2 mb 0.00 in0.0 mm 0.00 in0.0 mm 0.02 in0.5 mm
04:03 AM 42.3°F5.7°C 36.5°F2.5°C 80% 21.0 mph SSE33.8 kmh SSE 30.0 mph48.3 kmh 29.99 in1015.6 mb 0.00 in0.0 mm 0.00 in0.0 mm 0.02 in0.5 mm
04:06 AM 42.3°F5.7°C 36.5°F2.5°C 80% 21.0 mph SSE33.8 kmh SSE 32.0 mph51.5 kmh 29.98 in1015.2 mb 0.00 in0.0 mm 0.00 in0.0 mm 0.02 in0.5 mm
04:09 AM 42.3°F5.7°C 36.1°F2.3°C 79% 21.0 mph SSE33.8 kmh SSE 32.0 mph51.5 kmh 29.98 in1015.2 mb 0.00 in0.0 mm 0.00 in0.0 mm 0.02 in0.5 mm
04:12 AM 42.3°F5.7°C 36.1°F2.3°C 79% 21.0 mph SSE33.8 kmh SSE 32.0 mph51.5 kmh 29.98 in1015.2 mb 0.00 in0.0 mm 0.00 in0.0 mm 0.02 in0.5 mm
04:15 AM 42.1°F5.6°C 36.1°F2.3°C 79% 20.0 mph SSE32.2 kmh SSE 30.0 mph48.3 kmh 29.98 in1015.2 mb 0.00 in0.0 mm 0.00 in0.0 mm 0.02 in0.5 mm
04:18 AM 42.1°F5.6°C 35.8°F2.1°C 78% 21.0 mph SSE33.8 kmh SSE 30.0 mph48.3 kmh 29.98 in1015.2 mb 0.00 in0.0 mm 0.00 in0.0 mm 0.02 in0.5 mm
04:21 AM 42.3°F5.7°C 35.8°F2.1°C 78% 20.0 mph SSE32.2 kmh SSE 29.0 mph46.7 kmh 29.98 in1015.2 mb 0.00 in0.0 mm 0.00 in0.0 mm 0.02 in0.5 mm
04:24 AM 42.3°F5.7°C 35.4°F1.9°C 77% 20.0 mph SSE32.2 kmh SSE 29.0 mph46.7 kmh 29.98 in1015.2 mb 0.00 in0.0 mm 0.00 in0.0 mm 0.02 in0.5 mm
04:27 AM 42.3°F5.7°C 35.4°F1.9°C 77% 21.0 mph SSE33.8 kmh SSE 31.0 mph49.9 kmh 29.98 in1015.2 mb 0.00 in0.0 mm 0.00 in0.0 mm 0.02 in0.5 mm
04:30 AM 42.3°F5.7°C 35.4°F1.9°C 77% 21.0 mph SSE33.8 kmh SSE 34.0 mph54.7 kmh 29.98 in1015.2 mb 0.00 in0.0 mm 0.00 in0.0 mm 0.02 in0.5 mm
04:33 AM 42.3°F5.7°C 35.2°F1.8°C 76% 21.0 mph SSE33.8 kmh SSE 34.0 mph54.7 kmh 29.98 in1015.2 mb 0.00 in0.0 mm 0.00 in0.0 mm 0.02 in0.5 mm
04:36 AM 42.3°F5.7°C 34.9°F1.6°C 75% 21.0 mph SSE33.8 kmh SSE 34.0 mph54.7 kmh 29.98 in1015.2 mb 0.00 in0.0 mm 0.00 in0.0 mm 0.02 in0.5 mm
04:39 AM 42.3°F5.7°C 34.9°F1.6°C 75% 21.0 mph SSE33.8 kmh SSE 34.0 mph54.7 kmh 29.98 in1015.2 mb 0.00 in0.0 mm 0.00 in0.0 mm 0.02 in0.5 mm
04:42 AM 42.4°F5.8°C 35.4°F1.9°C 76% 21.0 mph SSE33.8 kmh SSE 30.0 mph48.3 kmh 29.98 in1015.2 mb 0.00 in0.0 mm 0.00 in0.0 mm 0.02 in0.5 mm
04:45 AM 42.4°F5.8°C 35.1°F1.7°C 75% 21.0 mph SE33.8 kmh SE 30.0 mph48.3 kmh 29.98 in1015.2 mb 0.00 in0.0 mm 0.00 in0.0 mm 0.02 in0.5 mm
04:48 AM 42.4°F5.8°C 35.4°F1.9°C 76% 20.0 mph SE32.2 kmh SE 30.0 mph48.3 kmh 29.98 in1015.2 mb 0.00 in0.0 mm 0.00 in0.0 mm 0.02 in0.5 mm
04:51 AM 42.4°F5.8°C 35.1°F1.7°C 75% 18.0 mph SE29.0 kmh SE 30.0 mph48.3 kmh 29.98 in1015.2 mb 0.00 in0.0 mm 0.00 in0.0 mm 0.02 in0.5 mm
04:54 AM 42.4°F5.8°C 34.7°F1.5°C 74% 18.0 mph SE29.0 kmh SE 30.0 mph48.3 kmh 29.98 in1015.2 mb 0.00 in0.0 mm 0.00 in0.0 mm 0.02 in0.5 mm
04:57 AM 42.4°F5.8°C 35.1°F1.7°C 75% 17.0 mph SE27.4 kmh SE 28.0 mph45.1 kmh 29.98 in1015.2 mb 0.00 in0.0 mm 0.00 in0.0 mm 0.02 in0.5 mm
05:00 AM 42.4°F5.8°C 34.7°F1.5°C 74% 17.0 mph SE27.4 kmh SE 28.0 mph45.1 kmh 29.98 in1015.2 mb 0.00 in0.0 mm 0.00 in0.0 mm 0.02 in0.5 mm
05:03 AM 42.4°F5.8°C 35.1°F1.7°C 75% 17.0 mph SE27.4 kmh SE 28.0 mph45.1 kmh 29.98 in1015.2 mb 0.00 in0.0 mm 0.00 in0.0 mm 0.02 in0.5 mm
05:06 AM 42.4°F5.8°C 35.1°F1.7°C 75% 17.0 mph SE27.4 kmh SE 28.0 mph45.1 kmh 29.98 in1015.2 mb 0.00 in0.0 mm 0.00 in0.0 mm 0.02 in0.5 mm
05:09 AM 42.4°F5.8°C 35.1°F1.7°C 75% 17.0 mph SE27.4 kmh SE 28.0 mph45.1 kmh 29.98 in1015.2 mb 0.00 in0.0 mm 0.00 in0.0 mm 0.02 in0.5 mm
05:12 AM 42.4°F5.8°C 35.4°F1.9°C 76% 17.0 mph SE27.4 kmh SE 28.0 mph45.1 kmh 29.98 in1015.2 mb 0.00 in0.0 mm 0.00 in0.0 mm 0.02 in0.5 mm
05:15 AM 42.4°F5.8°C 35.1°F1.7°C 75% 17.0 mph SE27.4 kmh SE 28.0 mph45.1 kmh 29.98 in1015.2 mb 0.00 in0.0 mm 0.00 in0.0 mm 0.02 in0.5 mm
05:18 AM 42.4°F5.8°C 35.4°F1.9°C 76% 16.0 mph SE25.7 kmh SE 26.0 mph41.8 kmh 29.98 in1015.2 mb 0.00 in0.0 mm 0.00 in0.0 mm 0.02 in0.5 mm
05:21 AM 42.4°F5.8°C 35.1°F1.7°C 75% 17.0 mph SE27.4 kmh SE 30.0 mph48.3 kmh 29.98 in1015.2 mb 0.00 in0.0 mm 0.00 in0.0 mm 0.02 in0.5 mm
05:24 AM 42.6°F5.9°C 35.6°F2.0°C 76% 18.0 mph SE29.0 kmh SE 30.0 mph48.3 kmh 29.99 in1015.6 mb 0.00 in0.0 mm 0.00 in0.0 mm 0.02 in0.5 mm
05:27 AM 42.6°F5.9°C 35.6°F2.0°C 76% 17.0 mph SE27.4 kmh SE 30.0 mph48.3 kmh 29.99 in1015.6 mb 0.00 in0.0 mm 0.00 in0.0 mm 0.02 in0.5 mm
05:30 AM 42.6°F5.9°C 34.9°F1.6°C 74% 17.0 mph SE27.4 kmh SE 26.0 mph41.8 kmh 29.98 in1015.2 mb 0.00 in0.0 mm 0.00 in0.0 mm 0.02 in0.5 mm
05:33 AM 42.4°F5.8°C 34.5°F1.4°C 73% 16.0 mph SE25.7 kmh SE 25.0 mph40.2 kmh 29.99 in1015.6 mb 0.00 in0.0 mm 0.00 in0.0 mm 0.02 in0.5 mm
05:36 AM 42.6°F5.9°C 34.9°F1.6°C 74% 17.0 mph SE27.4 kmh SE 29.0 mph46.7 kmh 29.99 in1015.6 mb 0.00 in0.0 mm 0.00 in0.0 mm 0.02 in0.5 mm
05:39 AM 42.6°F5.9°C 34.5°F1.4°C 73% 19.0 mph SE30.6 kmh SE 29.0 mph46.7 kmh 29.98 in1015.2 mb 0.00 in0.0 mm 0.00 in0.0 mm 0.02 in0.5 mm
05:42 AM 42.6°F5.9°C 34.9°F1.6°C 74% 19.0 mph SSE30.6 kmh SSE 29.0 mph46.7 kmh 29.98 in1015.2 mb 0.00 in0.0 mm 0.00 in0.0 mm 0.02 in0.5 mm
05:45 AM 42.6°F5.9°C 35.1°F1.7°C 74% 20.0 mph SSE32.2 kmh SSE 29.0 mph46.7 kmh 29.98 in1015.2 mb 0.00 in0.0 mm 0.00 in0.0 mm 0.02 in0.5 mm
05:48 AM 42.6°F5.9°C 35.1°F1.7°C 74% 20.0 mph SSE32.2 kmh SSE 29.0 mph46.7 kmh 29.99 in1015.6 mb 0.00 in0.0 mm 0.00 in0.0 mm 0.02 in0.5 mm
05:51 AM 42.6°F5.9°C 35.2°F1.8°C 75% 19.0 mph SSE30.6 kmh SSE 29.0 mph46.7 kmh 29.98 in1015.2 mb 0.00 in0.0 mm 0.00 in0.0 mm 0.02 in0.5 mm
05:54 AM 42.8°F6.0°C 36.1°F2.3°C 77% 18.0 mph SE29.0 kmh SE 27.0 mph43.5 kmh 29.98 in1015.2 mb 0.00 in0.0 mm 0.00 in0.0 mm 0.02 in0.5 mm
05:57 AM 42.8°F6.0°C 36.5°F2.5°C 78% 17.0 mph SE27.4 kmh SE 26.0 mph41.8 kmh 29.98 in1015.2 mb 0.00 in0.0 mm 0.00 in0.0 mm 0.02 in0.5 mm
06:00 AM 43.0°F6.1°C 36.5°F2.5°C 78% 18.0 mph SE29.0 kmh SE 29.0 mph46.7 kmh 29.98 in1015.2 mb 0.00 in0.0 mm 0.00 in0.0 mm 0.02 in0.5 mm
06:03 AM 43.0°F6.1°C 36.5°F2.5°C 78% 19.0 mph SSE30.6 kmh SSE 29.0 mph46.7 kmh 29.98 in1015.2 mb 0.00 in0.0 mm 0.00 in0.0 mm 0.02 in0.5 mm
06:06 AM 43.0°F6.1°C 36.5°F2.5°C 78% 20.0 mph SSE32.2 kmh SSE 29.0 mph46.7 kmh 29.98 in1015.2 mb 0.00 in0.0 mm 0.00 in0.0 mm 0.02 in0.5 mm
06:09 AM 42.8°F6.0°C 36.5°F2.5°C 78% 20.0 mph SSE32.2 kmh SSE 29.0 mph46.7 kmh 29.98 in1015.2 mb 0.00 in0.0 mm 0.00 in0.0 mm 0.02 in0.5 mm
06:12 AM 42.8°F6.0°C 36.5°F2.5°C 78% 20.0 mph SSE32.2 kmh SSE 30.0 mph48.3 kmh 29.98 in1015.2 mb 0.00 in0.0 mm 0.00 in0.0 mm 0.02 in0.5 mm
06:15 AM 42.8°F6.0°C 36.5°F2.5°C 78% 19.0 mph SSE30.6 kmh SSE 30.0 mph48.3 kmh 29.98 in1015.2 mb 0.00 in0.0 mm 0.00 in0.0 mm 0.02 in0.5 mm
06:18 AM 42.8°F6.0°C 36.5°F2.5°C 78% 19.0 mph SSE30.6 kmh SSE 30.0 mph48.3 kmh 29.98 in1015.2 mb 0.00 in0.0 mm 0.00 in0.0 mm 0.02 in0.5 mm
06:21 AM 42.8°F6.0°C 36.5°F2.5°C 78% 18.0 mph SE29.0 kmh SE 27.0 mph43.5 kmh 29.98 in1015.2 mb 0.00 in0.0 mm 0.00 in0.0 mm 0.02 in0.5 mm
06:24 AM 42.6°F5.9°C 36.0°F2.2°C 77% 18.0 mph SE29.0 kmh SE 27.0 mph43.5 kmh 29.98 in1015.2 mb 0.00 in0.0 mm 0.00 in0.0 mm 0.02 in0.5 mm
06:27 AM 42.6°F5.9°C 36.0°F2.2°C 77% 17.0 mph SE27.4 kmh SE 27.0 mph43.5 kmh 29.98 in1015.2 mb 0.00 in0.0 mm 0.00 in0.0 mm 0.02 in0.5 mm
06:30 AM 42.6°F5.9°C 36.0°F2.2°C 77% 16.0 mph SE25.7 kmh SE 25.0 mph40.2 kmh 29.98 in1015.2 mb 0.00 in0.0 mm 0.00 in0.0 mm 0.02 in0.5 mm
06:33 AM 42.6°F5.9°C 36.0°F2.2°C 77% 17.0 mph SE27.4 kmh SE 25.0 mph40.2 kmh 29.98 in1015.2 mb 0.00 in0.0 mm 0.00 in0.0 mm 0.02 in0.5 mm
06:36 AM 42.6°F5.9°C 36.0°F2.2°C 77% 17.0 mph SE27.4 kmh SE 25.0 mph40.2 kmh 29.98 in1015.2 mb 0.00 in0.0 mm 0.00 in0.0 mm 0.02 in0.5 mm
06:39 AM 42.6°F5.9°C 36.0°F2.2°C 77% 17.0 mph SE27.4 kmh SE 25.0 mph40.2 kmh 29.98 in1015.2 mb 0.00 in0.0 mm 0.00 in0.0 mm 0.02 in0.5 mm
06:42 AM 42.6°F5.9°C 36.0°F2.2°C 77% 17.0 mph SE27.4 kmh SE 25.0 mph40.2 kmh 29.98 in1015.2 mb 0.00 in0.0 mm 0.00 in0.0 mm 0.02 in0.5 mm
06:45 AM 42.6°F5.9°C 36.0°F2.2°C 77% 17.0 mph SE27.4 kmh SE 25.0 mph40.2 kmh 29.98 in1015.2 mb 0.00 in0.0 mm 0.00 in0.0 mm 0.02 in0.5 mm
06:48 AM 42.6°F5.9°C 35.6°F2.0°C 76% 17.0 mph SE27.4 kmh SE 25.0 mph40.2 kmh 29.98 in1015.2 mb 0.00 in0.0 mm 0.00 in0.0 mm 0.02 in0.5 mm
06:51 AM 42.6°F5.9°C 35.6°F2.0°C 76% 18.0 mph SE29.0 kmh SE 29.0 mph46.7 kmh 29.98 in1015.2 mb 0.00 in0.0 mm 0.00 in0.0 mm 0.02 in0.5 mm
06:54 AM 42.6°F5.9°C 35.6°F2.0°C 76% 18.0 mph SE29.0 kmh SE 29.0 mph46.7 kmh 29.98 in1015.2 mb 0.00 in0.0 mm 0.00 in0.0 mm 0.02 in0.5 mm
06:57 AM 42.6°F5.9°C 35.6°F2.0°C 76% 18.0 mph SE29.0 kmh SE 29.0 mph46.7 kmh 29.97 in1014.9 mb 0.00 in0.0 mm 0.00 in0.0 mm 0.02 in0.5 mm
07:00 AM 42.6°F5.9°C 36.0°F2.2°C 77% 17.0 mph SE27.4 kmh SE 26.0 mph41.8 kmh 29.97 in1014.9 mb 0.00 in0.0 mm 0.00 in0.0 mm 0.02 in0.5 mm
07:03 AM 42.6°F5.9°C 36.0°F2.2°C 77% 18.0 mph SE29.0 kmh SE 27.0 mph43.5 kmh 29.98 in1015.2 mb 0.00 in0.0 mm 0.00 in0.0 mm 0.02 in0.5 mm
07:06 AM 42.6°F5.9°C 36.0°F2.2°C 77% 20.0 mph SE32.2 kmh SE 30.0 mph48.3 kmh 29.97 in1014.9 mb 0.00 in0.0 mm 0.00 in0.0 mm 0.02 in0.5 mm
07:09 AM 42.6°F5.9°C 36.0°F2.2°C 77% 20.0 mph SE32.2 kmh SE 30.0 mph48.3 kmh 29.97 in1014.9 mb 0.00 in0.0 mm 0.00 in0.0 mm 0.02 in0.5 mm
07:12 AM 42.6°F5.9°C 36.3°F2.4°C 78% 21.0 mph SE33.8 kmh SE 30.0 mph48.3 kmh 29.97 in1014.9 mb 0.00 in0.0 mm 0.00 in0.0 mm 0.02 in0.5 mm
07:15 AM 42.6°F5.9°C 36.0°F2.2°C 77% 21.0 mph SE33.8 kmh SE 30.0 mph48.3 kmh 29.97 in1014.9 mb 0.00 in0.0 mm 0.00 in0.0 mm 0.02 in0.5 mm
07:18 AM 42.6°F5.9°C 36.0°F2.2°C 77% 20.0 mph SE32.2 kmh SE 30.0 mph48.3 kmh 29.97 in1014.9 mb 0.00 in0.0 mm 0.00 in0.0 mm 0.02 in0.5 mm
07:21 AM 42.6°F5.9°C 36.3°F2.4°C 78% 19.0 mph SE30.6 kmh SE 30.0 mph48.3 kmh 29.97 in1014.9 mb 0.00 in0.0 mm 0.00 in0.0 mm 0.02 in0.5 mm
07:24 AM 42.6°F5.9°C 36.3°F2.4°C 78% 18.0 mph SE29.0 kmh SE 30.0 mph48.3 kmh 29.97 in1014.9 mb 0.00 in0.0 mm 0.00 in0.0 mm 0.02 in0.5 mm
07:27 AM 42.6°F5.9°C 36.3°F2.4°C 78% 19.0 mph SE30.6 kmh SE 31.0 mph49.9 kmh 29.97 in1014.9 mb 0.00 in0.0 mm 0.00 in0.0 mm 0.02 in0.5 mm
07:30 AM 42.6°F5.9°C 36.3°F2.4°C 78% 20.0 mph SE32.2 kmh SE 31.0 mph49.9 kmh 29.97 in1014.9 mb 0.00 in0.0 mm 0.00 in0.0 mm 0.02 in0.5 mm
07:33 AM 42.8°F6.0°C 36.5°F2.5°C 78% 21.0 mph SSE33.8 kmh SSE 31.0 mph49.9 kmh 29.97 in1014.9 mb 0.00 in0.0 mm 0.00 in0.0 mm 0.02 in0.5 mm
07:36 AM 42.8°F6.0°C 36.7°F2.6°C 79% 19.0 mph SE30.6 kmh SE 31.0 mph49.9 kmh 29.97 in1014.9 mb 0.00 in0.0 mm 0.00 in0.0 mm 0.02 in0.5 mm
07:39 AM 42.8°F6.0°C 36.7°F2.6°C 79% 19.0 mph SE30.6 kmh SE 31.0 mph49.9 kmh 29.97 in1014.9 mb 0.00 in0.0 mm 0.00 in0.0 mm 0.02 in0.5 mm
07:42 AM 43.0°F6.1°C 36.9°F2.7°C 79% 18.0 mph SSE29.0 kmh SSE 30.0 mph48.3 kmh 29.97 in1014.9 mb 0.00 in0.0 mm 0.00 in0.0 mm 0.02 in0.5 mm
07:45 AM 43.0°F6.1°C 36.9°F2.7°C 79% 18.0 mph SSE29.0 kmh SSE 30.0 mph48.3 kmh 29.97 in1014.9 mb 0.00 in0.0 mm 0.00 in0.0 mm 0.02 in0.5 mm
07:48 AM 43.0°F6.1°C 36.9°F2.7°C 79% 17.0 mph SE27.4 kmh SE 27.0 mph43.5 kmh 29.97 in1014.9 mb 0.00 in0.0 mm 0.00 in0.0 mm 0.02 in0.5 mm
07:51 AM 43.0°F6.1°C 36.9°F2.7°C 79% 18.0 mph SE29.0 kmh SE 29.0 mph46.7 kmh 29.98 in1015.2 mb 0.00 in0.0 mm 0.00 in0.0 mm 0.02 in0.5 mm
07:54 AM 43.0°F6.1°C 36.9°F2.7°C 79% 18.0 mph SE29.0 kmh SE 29.0 mph46.7 kmh 29.98 in1015.2 mb 0.00 in0.0 mm 0.00 in0.0 mm 0.02 in0.5 mm
07:57 AM 42.8°F6.0°C 36.7°F2.6°C 79% 18.0 mph SE29.0 kmh SE 29.0 mph46.7 kmh 29.98 in1015.2 mb 0.00 in0.0 mm 0.00 in0.0 mm 0.02 in0.5 mm
08:00 AM 42.8°F6.0°C 36.7°F2.6°C 79% 19.0 mph SE30.6 kmh SE 31.0 mph49.9 kmh 29.97 in1014.9 mb 0.00 in0.0 mm 0.00 in0.0 mm 0.02 in0.5 mm
08:03 AM 42.8°F6.0°C 36.7°F2.6°C 79% 19.0 mph SE30.6 kmh SE 31.0 mph49.9 kmh 29.98 in1015.2 mb 0.00 in0.0 mm 0.00 in0.0 mm 0.02 in0.5 mm
08:06 AM 42.8°F6.0°C 36.7°F2.6°C 79% 19.0 mph SE30.6 kmh SE 31.0 mph49.9 kmh 29.98 in1015.2 mb 0.00 in0.0 mm 0.00 in0.0 mm 0.02 in0.5 mm
08:09 AM 42.8°F6.0°C 37.0°F2.8°C 80% 20.0 mph SE32.2 kmh SE 31.0 mph49.9 kmh 29.98 in1015.2 mb 0.00 in0.0 mm 0.00 in0.0 mm 0.02 in0.5 mm
08:12 AM 43.0°F6.1°C 36.9°F2.7°C 79% 19.0 mph SE30.6 kmh SE 28.0 mph45.1 kmh 29.98 in1015.2 mb 0.00 in0.0 mm 0.00 in0.0 mm 0.02 in0.5 mm
08:15 AM 43.0°F6.1°C 37.2°F2.9°C 80% 19.0 mph SE30.6 kmh SE 28.0 mph45.1 kmh 29.98 in1015.2 mb 0.00 in0.0 mm 0.00 in0.0 mm 0.02 in0.5 mm
08:18 AM 43.0°F6.1°C 37.2°F2.9°C 80% 18.0 mph SE29.0 kmh SE 28.0 mph45.1 kmh 29.98 in1015.2 mb 0.00 in0.0 mm 0.00 in0.0 mm 0.02 in0.5 mm
08:21 AM 43.0°F6.1°C 37.2°F2.9°C 80% 18.0 mph SE29.0 kmh SE 28.0 mph45.1 kmh 29.98 in1015.2 mb 0.00 in0.0 mm 0.00 in0.0 mm 0.02 in0.5 mm
08:24 AM 43.0°F6.1°C 37.2°F2.9°C 80% 18.0 mph SE29.0 kmh SE 28.0 mph45.1 kmh 29.98 in1015.2 mb 0.00 in0.0 mm 0.00 in0.0 mm 0.02 in0.5 mm
08:27 AM 43.0°F6.1°C 37.2°F2.9°C 80% 19.0 mph SE30.6 kmh SE 29.0 mph46.7 kmh 29.97 in1014.9 mb 0.00 in0.0 mm 0.00 in0.0 mm 0.02 in0.5 mm
08:30 AM 43.0°F6.1°C 37.2°F2.9°C 80% 17.0 mph SE27.4 kmh SE 29.0 mph46.7 kmh 29.98 in1015.2 mb 0.00 in0.0 mm 0.00 in0.0 mm 0.02 in0.5 mm
08:33 AM 43.0°F6.1°C 37.2°F2.9°C 80% 18.0 mph SE29.0 kmh SE 29.0 mph46.7 kmh 29.97 in1014.9 mb 0.00 in0.0 mm 0.00 in0.0 mm 0.02 in0.5 mm
08:36 AM 43.0°F6.1°C 37.2°F2.9°C 80% 18.0 mph SE29.0 kmh SE 29.0 mph46.7 kmh 29.97 in1014.9 mb 0.00 in0.0 mm 0.00 in0.0 mm 0.02 in0.5 mm
08:39 AM 43.0°F6.1°C 37.2°F2.9°C 80% 18.0 mph SE29.0 kmh SE 29.0 mph46.7 kmh 29.97 in1014.9 mb 0.00 in0.0 mm 0.00 in0.0 mm 0.02 in0.5 mm
08:42 AM 43.0°F6.1°C 36.9°F2.7°C 79% 19.0 mph SE30.6 kmh SE 32.0 mph51.5 kmh 29.97 in1014.9 mb 0.00 in0.0 mm 0.00 in0.0 mm 0.02 in0.5 mm
08:45 AM 43.0°F6.1°C 36.9°F2.7°C 79% 19.0 mph SE30.6 kmh SE 32.0 mph51.5 kmh 29.97 in1014.9 mb 0.00 in0.0 mm 0.00 in0.0 mm 0.02 in0.5 mm
08:48 AM 43.2°F6.2°C 37.4°F3.0°C 80% 20.0 mph SE32.2 kmh SE 32.0 mph51.5 kmh 29.97 in1014.9 mb 0.00 in0.0 mm 0.00 in0.0 mm 0.02 in0.5 mm
08:51 AM 43.2°F6.2°C 37.4°F3.0°C 80% 19.0 mph SE30.6 kmh SE 29.0 mph46.7 kmh 29.97 in1014.9 mb 0.00 in0.0 mm 0.00 in0.0 mm 0.02 in0.5 mm
08:54 AM 43.2°F6.2°C 37.4°F3.0°C 80% 19.0 mph SE30.6 kmh SE 31.0 mph49.9 kmh 29.97 in1014.9 mb 0.00 in0.0 mm 0.00 in0.0 mm 0.02 in0.5 mm
08:57 AM 43.2°F6.2°C 37.4°F3.0°C 80% 20.0 mph SE32.2 kmh SE 31.0 mph49.9 kmh 29.97 in1014.9 mb 0.00 in0.0 mm 0.00 in0.0 mm 0.02 in0.5 mm
09:00 AM 43.2°F6.2°C 37.4°F3.0°C 80% 20.0 mph SE32.2 kmh SE 31.0 mph49.9 kmh 29.97 in1014.9 mb 0.00 in0.0 mm 0.00 in0.0 mm 0.02 in0.5 mm
09:03 AM 43.2°F6.2°C 37.4°F3.0°C 80% 19.0 mph SE30.6 kmh SE 29.0 mph46.7 kmh 29.97 in1014.9 mb 0.00 in0.0 mm 0.00 in0.0 mm 0.02 in0.5 mm
09:06 AM 43.2°F6.2°C 37.4°F3.0°C 80% 19.0 mph SE30.6 kmh SE 29.0 mph46.7 kmh 29.97 in1014.9 mb 0.00 in0.0 mm 0.00 in0.0 mm 0.02 in0.5 mm
09:09 AM 43.2°F6.2°C 37.4°F3.0°C 80% 19.0 mph SE30.6 kmh SE 29.0 mph46.7 kmh 29.97 in1014.9 mb 0.00 in0.0 mm 0.00 in0.0 mm 0.02 in0.5 mm
09:12 AM 43.3°F6.3°C 37.6°F3.1°C 80% 19.0 mph SE30.6 kmh SE 30.0 mph48.3 kmh 29.97 in1014.9 mb 0.00 in0.0 mm 0.00 in0.0 mm 0.02 in0.5 mm
09:15 AM 43.3°F6.3°C 37.6°F3.1°C 80% 20.0 mph SE32.2 kmh SE 30.0 mph48.3 kmh 29.97 in1014.9 mb 0.00 in0.0 mm 0.00 in0.0 mm 0.02 in0.5 mm
09:18 AM 43.3°F6.3°C 37.6°F3.1°C 80% 20.0 mph SE32.2 kmh SE 33.0 mph53.1 kmh 29.97 in1014.9 mb 0.00 in0.0 mm 0.00 in0.0 mm 0.02 in0.5 mm
09:21 AM 43.5°F6.4°C 37.8°F3.2°C 80% 20.0 mph SE32.2 kmh SE 33.0 mph53.1 kmh 29.97 in1014.9 mb 0.00 in0.0 mm 0.00 in0.0 mm 0.02 in0.5 mm
09:24 AM 43.5°F6.4°C 37.8°F3.2°C 80% 21.0 mph SE33.8 kmh SE 33.0 mph53.1 kmh 29.97 in1014.9 mb 0.00 in0.0 mm 0.00 in0.0 mm 0.02 in0.5 mm
09:27 AM 43.5°F6.4°C 37.8°F3.2°C 80% 22.0 mph SE35.4 kmh SE 36.0 mph57.9 kmh 29.97 in1014.9 mb 0.00 in0.0 mm 0.00 in0.0 mm 0.02 in0.5 mm
09:30 AM 43.7°F6.5°C 37.2°F2.9°C 78% 22.0 mph SE35.4 kmh SE 36.0 mph57.9 kmh 29.97 in1014.9 mb 0.00 in0.0 mm 0.00 in0.0 mm 0.02 in0.5 mm
09:33 AM 43.7°F6.5°C 36.7°F2.6°C 76% 23.0 mph SSE37.0 kmh SSE 36.0 mph57.9 kmh 29.96 in1014.6 mb 0.00 in0.0 mm 0.00 in0.0 mm 0.02 in0.5 mm
09:36 AM 43.9°F6.6°C 36.7°F2.6°C 76% 22.0 mph SSE35.4 kmh SSE 34.0 mph54.7 kmh 29.96 in1014.6 mb 0.00 in0.0 mm 0.00 in0.0 mm 0.02 in0.5 mm
09:39 AM 44.1°F6.7°C 37.2°F2.9°C 77% 23.0 mph SSE37.0 kmh SSE 34.0 mph54.7 kmh 29.96 in1014.6 mb 0.00 in0.0 mm 0.00 in0.0 mm 0.02 in0.5 mm
09:42 AM 44.1°F6.7°C 37.8°F3.2°C 78% 23.0 mph SSE37.0 kmh SSE 31.0 mph49.9 kmh 29.96 in1014.6 mb 0.00 in0.0 mm 0.00 in0.0 mm 0.02 in0.5 mm
09:45 AM 44.1°F6.7°C 36.9°F2.7°C 76% 24.0 mph SSE38.6 kmh SSE 35.0 mph56.3 kmh 29.96 in1014.6 mb 0.00 in0.0 mm 0.00 in0.0 mm 0.02 in0.5 mm
09:48 AM 44.1°F6.7°C 36.5°F2.5°C 75% 24.0 mph SSE38.6 kmh SSE 35.0 mph56.3 kmh 29.96 in1014.6 mb 0.00 in0.0 mm 0.00 in0.0 mm 0.02 in0.5 mm
09:51 AM 44.1°F6.7°C 36.5°F2.5°C 75% 24.0 mph SSE38.6 kmh SSE 36.0 mph57.9 kmh 29.96 in1014.6 mb 0.00 in0.0 mm 0.00 in0.0 mm 0.02 in0.5 mm
09:54 AM 44.1°F6.7°C 36.7°F2.6°C 75% 24.0 mph SSE38.6 kmh SSE 36.0 mph57.9 kmh 29.96 in1014.6 mb 0.00 in0.0 mm 0.00 in0.0 mm 0.02 in0.5 mm
09:57 AM 44.1°F6.7°C 36.3°F2.4°C 74% 24.0 mph SSE38.6 kmh SSE 36.0 mph57.9 kmh 29.96 in1014.6 mb 0.00 in0.0 mm 0.00 in0.0 mm 0.02 in0.5 mm
10:00 AM 44.1°F6.7°C 36.3°F2.4°C 74% 23.0 mph SSE37.0 kmh SSE 35.0 mph56.3 kmh 29.96 in1014.6 mb 0.00 in0.0 mm 0.00 in0.0 mm 0.02 in0.5 mm
10:03 AM 44.1°F6.7°C 35.6°F2.0°C 72% 24.0 mph SSE38.6 kmh SSE 35.0 mph56.3 kmh 29.96 in1014.6 mb 0.00 in0.0 mm 0.00 in0.0 mm 0.02 in0.5 mm
10:06 AM 44.1°F6.7°C 35.6°F2.0°C 72% 25.0 mph SSE40.2 kmh SSE 37.0 mph59.5 kmh 29.96 in1014.6 mb 0.00 in0.0 mm 0.00 in0.0 mm 0.02 in0.5 mm
10:09 AM 44.2°F6.8°C 36.1°F2.3°C 73% 25.0 mph SSE40.2 kmh SSE 39.0 mph62.8 kmh 29.96 in1014.6 mb 0.00 in0.0 mm 0.00 in0.0 mm 0.02 in0.5 mm
10:12 AM 44.2°F6.8°C 36.1°F2.3°C 73% 25.0 mph SSE40.2 kmh SSE 39.0 mph62.8 kmh 29.96 in1014.6 mb 0.00 in0.0 mm 0.00 in0.0 mm 0.02 in0.5 mm
10:15 AM 44.2°F6.8°C 35.8°F2.1°C 72% 25.0 mph SSE40.2 kmh SSE 39.0 mph62.8 kmh 29.96 in1014.6 mb 0.00 in0.0 mm 0.00 in0.0 mm 0.02 in0.5 mm
10:18 AM 44.2°F6.8°C 35.8°F2.1°C 72% 25.0 mph SSE40.2 kmh SSE 39.0 mph62.8 kmh 29.96 in1014.6 mb 0.00 in0.0 mm 0.00 in0.0 mm 0.02 in0.5 mm
10:21 AM 44.2°F6.8°C 35.8°F2.1°C 72% 25.0 mph SSE40.2 kmh SSE 37.0 mph59.5 kmh 29.96 in1014.6 mb 0.00 in0.0 mm 0.00 in0.0 mm 0.02 in0.5 mm
10:24 AM 44.2°F6.8°C 35.8°F2.1°C 72% 25.0 mph SSE40.2 kmh SSE 37.0 mph59.5 kmh 29.96 in1014.6 mb 0.00 in0.0 mm 0.00 in0.0 mm 0.02 in0.5 mm
10:27 AM 44.2°F6.8°C 35.8°F2.1°C 72% 25.0 mph SSE40.2 kmh SSE 37.0 mph59.5 kmh 29.96 in1014.6 mb 0.00 in0.0 mm 0.00 in0.0 mm 0.02 in0.5 mm
10:30 AM 44.2°F6.8°C 35.8°F2.1°C 72% 25.0 mph SSE40.2 kmh SSE 37.0 mph59.5 kmh 29.96 in1014.6 mb 0.00 in0.0 mm 0.00 in0.0 mm 0.02 in0.5 mm
10:33 AM 44.2°F6.8°C 35.4°F1.9°C 71% 25.0 mph SSE40.2 kmh SSE 36.0 mph57.9 kmh 29.96 in1014.6 mb 0.00 in0.0 mm 0.00 in0.0 mm 0.02 in0.5 mm
10:36 AM 44.2°F6.8°C 35.4°F1.9°C 71% 25.0 mph SSE40.2 kmh SSE 36.0 mph57.9 kmh 29.96 in1014.6 mb 0.00 in0.0 mm 0.00 in0.0 mm 0.02 in0.5 mm
10:39 AM 44.4°F6.9°C 36.3°F2.4°C 73% 24.0 mph SSE38.6 kmh SSE 35.0 mph56.3 kmh 29.96 in1014.6 mb 0.00 in0.0 mm 0.00 in0.0 mm 0.02 in0.5 mm
10:42 AM 44.2°F6.8°C 35.8°F2.1°C 72% 24.0 mph SSE38.6 kmh SSE 35.0 mph56.3 kmh 29.96 in1014.6 mb 0.00 in0.0 mm 0.00 in0.0 mm 0.02 in0.5 mm
10:45 AM 44.2°F6.8°C 35.8°F2.1°C 72% 24.0 mph SSE38.6 kmh SSE 33.0 mph53.1 kmh 29.96 in1014.6 mb 0.00 in0.0 mm 0.00 in0.0 mm 0.02 in0.5 mm
10:48 AM 44.2°F6.8°C 36.1°F2.3°C 73% 24.0 mph SSE38.6 kmh SSE 34.0 mph54.7 kmh 29.96 in1014.6 mb 0.00 in0.0 mm 0.00 in0.0 mm 0.02 in0.5 mm
10:51 AM 44.2°F6.8°C 36.1°F2.3°C 73% 24.0 mph SSE38.6 kmh SSE 34.0 mph54.7 kmh 29.96 in1014.6 mb 0.00 in0.0 mm 0.00 in0.0 mm 0.02 in0.5 mm
10:54 AM 44.2°F6.8°C 35.8°F2.1°C 72% 24.0 mph SSE38.6 kmh SSE 35.0 mph56.3 kmh 29.96 in1014.6 mb 0.00 in0.0 mm 0.00 in0.0 mm 0.02 in0.5 mm
10:57 AM 44.4°F6.9°C 36.0°F2.2°C 72% 24.0 mph SSE38.6 kmh SSE 36.0 mph57.9 kmh 29.96 in1014.6 mb 0.00 in0.0 mm 0.00 in0.0 mm 0.02 in0.5 mm
11:00 AM 44.4°F6.9°C 35.6°F2.0°C 71% 25.0 mph SSE40.2 kmh SSE 38.0 mph61.2 kmh 29.96 in1014.6 mb 0.00 in0.0 mm 0.00 in0.0 mm 0.02 in0.5 mm
11:03 AM 44.4°F6.9°C 35.6°F2.0°C 71% 25.0 mph SSE40.2 kmh SSE 38.0 mph61.2 kmh 29.96 in1014.6 mb 0.00 in0.0 mm 0.00 in0.0 mm 0.02 in0.5 mm
11:06 AM 44.4°F6.9°C 35.6°F2.0°C 71% 25.0 mph SSE40.2 kmh SSE 38.0 mph61.2 kmh 29.96 in1014.6 mb 0.00 in0.0 mm 0.00 in0.0 mm 0.02 in0.5 mm
11:09 AM 44.4°F6.9°C 36.3°F2.4°C 73% 24.0 mph SSE38.6 kmh SSE 38.0 mph61.2 kmh 29.96 in1014.6 mb 0.00 in0.0 mm 0.00 in0.0 mm 0.02 in0.5 mm
11:12 AM 44.4°F6.9°C 36.0°F2.2°C 72% 23.0 mph SSE37.0 kmh SSE 35.0 mph56.3 kmh 29.96 in1014.6 mb 0.00 in0.0 mm 0.00 in0.0 mm 0.02 in0.5 mm
11:15 AM 44.4°F6.9°C 35.6°F2.0°C 71% 23.0 mph SSE37.0 kmh SSE 34.0 mph54.7 kmh 29.96 in1014.6 mb 0.00 in0.0 mm 0.00 in0.0 mm 0.02 in0.5 mm
11:18 AM 44.4°F6.9°C 36.0°F2.2°C 72% 22.0 mph SSE35.4 kmh SSE 32.0 mph51.5 kmh 29.96 in1014.6 mb 0.00 in0.0 mm 0.00 in0.0 mm 0.02 in0.5 mm
11:21 AM 44.4°F6.9°C 36.3°F2.4°C 73% 23.0 mph SSE37.0 kmh SSE 33.0 mph53.1 kmh 29.95 in1014.2 mb 0.00 in0.0 mm 0.00 in0.0 mm 0.02 in0.5 mm
11:24 AM 44.4°F6.9°C 36.3°F2.4°C 73% 23.0 mph SSE37.0 kmh SSE 37.0 mph59.5 kmh 29.95 in1014.2 mb 0.00 in0.0 mm 0.00 in0.0 mm 0.02 in0.5 mm
11:27 AM 44.2°F6.8°C 36.1°F2.3°C 73% 25.0 mph SSE40.2 kmh SSE 37.0 mph59.5 kmh 29.95 in1014.2 mb 0.00 in0.0 mm 0.00 in0.0 mm 0.02 in0.5 mm
11:30 AM 44.2°F6.8°C 36.9°F2.7°C 75% 24.0 mph SSE38.6 kmh SSE 37.0 mph59.5 kmh 29.95 in1014.2 mb 0.00 in0.0 mm 0.00 in0.0 mm 0.02 in0.5 mm
11:33 AM 44.2°F6.8°C 36.5°F2.5°C 74% 24.0 mph SSE38.6 kmh SSE 37.0 mph59.5 kmh 29.95 in1014.2 mb 0.00 in0.0 mm 0.00 in0.0 mm 0.02 in0.5 mm
11:36 AM 44.2°F6.8°C 36.1°F2.3°C 73% 25.0 mph SSE40.2 kmh SSE 36.0 mph57.9 kmh 29.95 in1014.2 mb 0.00 in0.0 mm 0.00 in0.0 mm 0.02 in0.5 mm
11:39 AM 44.2°F6.8°C 36.1°F2.3°C 73% 24.0 mph SSE38.6 kmh SSE 36.0 mph57.9 kmh 29.95 in1014.2 mb 0.00 in0.0 mm 0.00 in0.0 mm 0.02 in0.5 mm
11:42 AM 44.2°F6.8°C 35.8°F2.1°C 72% 25.0 mph SSE40.2 kmh SSE 36.0 mph57.9 kmh 29.95 in1014.2 mb 0.00 in0.0 mm 0.00 in0.0 mm 0.02 in0.5 mm
11:45 AM 44.4°F6.9°C 36.3°F2.4°C 73% 24.0 mph SSE38.6 kmh SSE 33.0 mph53.1 kmh 29.95 in1014.2 mb 0.00 in0.0 mm 0.00 in0.0 mm 0.02 in0.5 mm
11:48 AM 44.4°F6.9°C 36.3°F2.4°C 73% 24.0 mph SSE38.6 kmh SSE 34.0 mph54.7 kmh 29.95 in1014.2 mb 0.00 in0.0 mm 0.00 in0.0 mm 0.02 in0.5 mm
11:51 AM 44.4°F6.9°C 36.3°F2.4°C 73% 24.0 mph SE38.6 kmh SE 34.0 mph54.7 kmh 29.95 in1014.2 mb 0.00 in0.0 mm 0.00 in0.0 mm 0.02 in0.5 mm
11:54 AM 44.4°F6.9°C 36.3°F2.4°C 73% 23.0 mph SSE37.0 kmh SSE 34.0 mph54.7 kmh 29.95 in1014.2 mb 0.00 in0.0 mm 0.00 in0.0 mm 0.02 in0.5 mm
11:57 AM 44.4°F6.9°C 37.0°F2.8°C 75% 22.0 mph SSE35.4 kmh SSE 34.0 mph54.7 kmh 29.95 in1014.2 mb 0.00 in0.0 mm 0.00 in0.0 mm 0.02 in0.5 mm
12:00 PM 44.2°F6.8°C 36.5°F2.5°C 74% 22.0 mph SSE35.4 kmh SSE 34.0 mph54.7 kmh 29.95 in1014.2 mb 0.00 in0.0 mm 0.00 in0.0 mm 0.02 in0.5 mm
12:03 PM 44.2°F6.8°C 36.5°F2.5°C 74% 21.0 mph SSE33.8 kmh SSE 34.0 mph54.7 kmh 29.95 in1014.2 mb 0.00 in0.0 mm 0.00 in0.0 mm 0.02 in0.5 mm
12:06 PM 44.2°F6.8°C 36.5°F2.5°C 74% 23.0 mph SSE37.0 kmh SSE 34.0 mph54.7 kmh 29.95 in1014.2 mb 0.00 in0.0 mm 0.00 in0.0 mm 0.02 in0.5 mm
12:09 PM 44.2°F6.8°C 36.1°F2.3°C 73% 22.0 mph SSE35.4 kmh SSE 34.0 mph54.7 kmh 29.95 in1014.2 mb 0.00 in0.0 mm 0.00 in0.0 mm 0.02 in0.5 mm
12:12 PM 44.2°F6.8°C 35.8°F2.1°C 72% 22.0 mph SSE35.4 kmh SSE 30.0 mph48.3 kmh 29.95 in1014.2 mb 0.00 in0.0 mm 0.00 in0.0 mm 0.02 in0.5 mm
12:15 PM 44.2°F6.8°C 35.8°F2.1°C 72% 22.0 mph SSE35.4 kmh SSE 32.0 mph51.5 kmh 29.95 in1014.2 mb 0.00 in0.0 mm 0.00 in0.0 mm 0.02 in0.5 mm
12:18 PM 44.2°F6.8°C 36.1°F2.3°C 73% 21.0 mph SSE33.8 kmh SSE 32.0 mph51.5 kmh 29.95 in1014.2 mb 0.00 in0.0 mm 0.00 in0.0 mm 0.02 in0.5 mm
12:21 PM 44.2°F6.8°C 35.8°F2.1°C 72% 22.0 mph SSE35.4 kmh SSE 32.0 mph51.5 kmh 29.95 in1014.2 mb 0.00 in0.0 mm 0.00 in0.0 mm 0.02 in0.5 mm
12:24 PM 44.2°F6.8°C 36.1°F2.3°C 73% 22.0 mph SSE35.4 kmh SSE 34.0 mph54.7 kmh 29.95 in1014.2 mb 0.00 in0.0 mm 0.00 in0.0 mm 0.02 in0.5 mm
12:27 PM 44.2°F6.8°C 36.5°F2.5°C 74% 23.0 mph SSE37.0 kmh SSE 34.0 mph54.7 kmh 29.95 in1014.2 mb 0.00 in0.0 mm 0.00 in0.0 mm 0.02 in0.5 mm
12:30 PM 44.2°F6.8°C 36.5°F2.5°C 74% 23.0 mph SSE37.0 kmh SSE 34.0 mph54.7 kmh 29.94 in1013.9 mb 0.00 in0.0 mm 0.00 in0.0 mm 0.02 in0.5 mm
12:33 PM 44.2°F6.8°C 36.9°F2.7°C 75% 23.0 mph SSE37.0 kmh SSE 34.0 mph54.7 kmh 29.94 in1013.9 mb 0.00 in0.0 mm 0.00 in0.0 mm 0.02 in0.5 mm
12:36 PM 44.2°F6.8°C 36.9°F2.7°C 75% 22.0 mph SSE35.4 kmh SSE 34.0 mph54.7 kmh 29.94 in1013.9 mb 0.00 in0.0 mm 0.00 in0.0 mm 0.02 in0.5 mm
12:39 PM 44.1°F6.7°C 36.7°F2.6°C 75% 22.0 mph SSE35.4 kmh SSE 35.0 mph56.3 kmh 29.94 in1013.9 mb 0.00 in0.0 mm 0.00 in0.0 mm 0.02 in0.5 mm
12:42 PM 44.2°F6.8°C 37.0°F2.8°C 76% 21.0 mph SSE33.8 kmh SSE 35.0 mph56.3 kmh 29.94 in1013.9 mb 0.00 in0.0 mm 0.00 in0.0 mm 0.02 in0.5 mm
12:45 PM 44.1°F6.7°C 36.7°F2.6°C 75% 23.0 mph SSE37.0 kmh SSE 35.0 mph56.3 kmh 29.93 in1013.5 mb 0.00 in0.0 mm 0.00 in0.0 mm 0.02 in0.5 mm
12:48 PM 44.1°F6.7°C 36.7°F2.6°C 75% 24.0 mph SSE38.6 kmh SSE 36.0 mph57.9 kmh 29.94 in1013.9 mb 0.00 in0.0 mm 0.00 in0.0 mm 0.02 in0.5 mm
12:51 PM 44.1°F6.7°C 36.9°F2.7°C 76% 25.0 mph SSE40.2 kmh SSE 36.0 mph57.9 kmh 29.93 in1013.5 mb 0.00 in0.0 mm 0.00 in0.0 mm 0.02 in0.5 mm
12:54 PM 43.9°F6.6°C 36.9°F2.7°C 76% 25.0 mph SE40.2 kmh SE 36.0 mph57.9 kmh 29.94 in1013.9 mb 0.00 in0.0 mm 0.00 in0.0 mm 0.02 in0.5 mm
12:57 PM 44.1°F6.7°C 37.2°F2.9°C 77% 24.0 mph SSE38.6 kmh SSE 35.0 mph56.3 kmh 29.94 in1013.9 mb 0.00 in0.0 mm 0.00 in0.0 mm 0.02 in0.5 mm
01:00 PM 44.1°F6.7°C 37.2°F2.9°C 77% 24.0 mph SSE38.6 kmh SSE 35.0 mph56.3 kmh 29.93 in1013.5 mb 0.00 in0.0 mm 0.00 in0.0 mm 0.02 in0.5 mm
01:03 PM 44.1°F6.7°C 36.9°F2.7°C 76% 24.0 mph SSE38.6 kmh SSE 35.0 mph56.3 kmh 29.93 in1013.5 mb 0.00 in0.0 mm 0.00 in0.0 mm 0.02 in0.5 mm
01:06 PM 44.1°F6.7°C 37.2°F2.9°C 77% 25.0 mph SSE40.2 kmh SSE 36.0 mph57.9 kmh 29.93 in1013.5 mb 0.00 in0.0 mm 0.00 in0.0 mm 0.02 in0.5 mm
01:09 PM 44.1°F6.7°C 36.5°F2.5°C 75% 25.0 mph SSE40.2 kmh SSE 37.0 mph59.5 kmh 29.93 in1013.5 mb 0.00 in0.0 mm 0.00 in0.0 mm 0.02 in0.5 mm
01:12 PM 44.1°F6.7°C 36.9°F2.7°C 76% 24.0 mph SSE38.6 kmh SSE 37.0 mph59.5 kmh 29.93 in1013.5 mb 0.00 in0.0 mm 0.00 in0.0 mm 0.02 in0.5 mm
01:15 PM 43.9°F6.6°C 36.5°F2.5°C 75% 24.0 mph SSE38.6 kmh SSE 37.0 mph59.5 kmh 29.93 in1013.5 mb 0.00 in0.0 mm 0.00 in0.0 mm 0.02 in0.5 mm
01:18 PM 43.9°F6.6°C 36.5°F2.5°C 75% 23.0 mph SSE37.0 kmh SSE 35.0 mph56.3 kmh 29.93 in1013.5 mb 0.00 in0.0 mm 0.00 in0.0 mm 0.02 in0.5 mm
01:21 PM 43.9°F6.6°C 35.8°F2.1°C 73% 24.0 mph SSE38.6 kmh SSE 35.0 mph56.3 kmh 29.93 in1013.5 mb 0.00 in0.0 mm 0.00 in0.0 mm 0.02 in0.5 mm
01:24 PM 43.9°F6.6°C 35.8°F2.1°C 73% 24.0 mph SSE38.6 kmh SSE 36.0 mph57.9 kmh 29.93 in1013.5 mb 0.00 in0.0 mm 0.00 in0.0 mm 0.02 in0.5 mm
01:27 PM 43.9°F6.6°C 36.1°F2.3°C 74% 24.0 mph SSE38.6 kmh SSE 36.0 mph57.9 kmh 29.93 in1013.5 mb 0.00 in0.0 mm 0.00 in0.0 mm 0.02 in0.5 mm
01:30 PM 44.1°F6.7°C 36.3°F2.4°C 74% 25.0 mph SSE40.2 kmh SSE 36.0 mph57.9 kmh 29.93 in1013.5 mb 0.00 in0.0 mm 0.00 in0.0 mm 0.02 in0.5 mm
01:33 PM 44.1°F6.7°C 36.3°F2.4°C 74% 25.0 mph SSE40.2 kmh SSE 37.0 mph59.5 kmh 29.93 in1013.5 mb 0.00 in0.0 mm 0.00 in0.0 mm 0.02 in0.5 mm
01:36 PM 43.9°F6.6°C 35.4°F1.9°C 72% 26.0 mph SSE41.8 kmh SSE 40.0 mph64.4 kmh 29.93 in1013.5 mb 0.00 in0.0 mm 0.00 in0.0 mm 0.02 in0.5 mm
01:39 PM 44.1°F6.7°C 36.0°F2.2°C 73% 26.0 mph SSE41.8 kmh SSE 40.0 mph64.4 kmh 29.93 in1013.5 mb 0.00 in0.0 mm 0.00 in0.0 mm 0.02 in0.5 mm
01:42 PM 44.1°F6.7°C 36.0°F2.2°C 73% 26.0 mph SSE41.8 kmh SSE 40.0 mph64.4 kmh 29.92 in1013.2 mb 0.00 in0.0 mm 0.00 in0.0 mm 0.02 in0.5 mm
01:45 PM 44.1°F6.7°C 36.0°F2.2°C 73% 25.0 mph SSE40.2 kmh SSE 40.0 mph64.4 kmh 29.92 in1013.2 mb 0.00 in0.0 mm 0.00 in0.0 mm 0.02 in0.5 mm
01:48 PM 43.9°F6.6°C 36.1°F2.3°C 74% 25.0 mph SSE40.2 kmh SSE 36.0 mph57.9 kmh 29.92 in1013.2 mb 0.00 in0.0 mm 0.00 in0.0 mm 0.02 in0.5 mm
01:51 PM 43.9°F6.6°C 36.5°F2.5°C 75% 24.0 mph SSE38.6 kmh SSE 36.0 mph57.9 kmh 29.92 in1013.2 mb 0.00 in0.0 mm 0.00 in0.0 mm 0.02 in0.5 mm
01:54 PM 43.9°F6.6°C 36.9°F2.7°C 76% 24.0 mph SSE38.6 kmh SSE 37.0 mph59.5 kmh 29.92 in1013.2 mb 0.00 in0.0 mm 0.00 in0.0 mm 0.02 in0.5 mm
01:57 PM 43.9°F6.6°C 36.9°F2.7°C 76% 24.0 mph SSE38.6 kmh SSE 37.0 mph59.5 kmh 29.92 in1013.2 mb 0.00 in0.0 mm 0.00 in0.0 mm 0.02 in0.5 mm
02:00 PM 43.9°F6.6°C 37.2°F2.9°C 77% 24.0 mph SSE38.6 kmh SSE 37.0 mph59.5 kmh 29.92 in1013.2 mb 0.00 in0.0 mm 0.00 in0.0 mm 0.02 in0.5 mm
02:03 PM 43.9°F6.6°C 36.9°F2.7°C 76% 24.0 mph SSE38.6 kmh SSE 34.0 mph54.7 kmh 29.92 in1013.2 mb 0.00 in0.0 mm 0.00 in0.0 mm 0.02 in0.5 mm
02:06 PM 43.9°F6.6°C 36.9°F2.7°C 76% 24.0 mph SSE38.6 kmh SSE 34.0 mph54.7 kmh 29.91 in1012.9 mb 0.00 in0.0 mm 0.00 in0.0 mm 0.02 in0.5 mm
02:09 PM 43.9°F6.6°C 37.2°F2.9°C 77% 24.0 mph SSE38.6 kmh SSE 37.0 mph59.5 kmh 29.92 in1013.2 mb 0.00 in0.0 mm 0.00 in0.0 mm 0.02 in0.5 mm
02:12 PM 43.9°F6.6°C 37.2°F2.9°C 77% 24.0 mph SSE38.6 kmh SSE 37.0 mph59.5 kmh 29.92 in1013.2 mb 0.00 in0.0 mm 0.00 in0.0 mm 0.02 in0.5 mm
02:15 PM 43.9°F6.6°C 37.2°F2.9°C 77% 23.0 mph SSE37.0 kmh SSE 37.0 mph59.5 kmh 29.92 in1013.2 mb 0.00 in0.0 mm 0.00 in0.0 mm 0.02 in0.5 mm
02:18 PM 43.9°F6.6°C 36.9°F2.7°C 76% 24.0 mph SSE38.6 kmh SSE 37.0 mph59.5 kmh 29.91 in1012.9 mb 0.00 in0.0 mm 0.00 in0.0 mm 0.02 in0.5 mm
02:21 PM 44.1°F6.7°C 36.5°F2.5°C 75% 24.0 mph SSE38.6 kmh SSE 37.0 mph59.5 kmh 29.91 in1012.9 mb 0.00 in0.0 mm 0.00 in0.0 mm 0.02 in0.5 mm
02:24 PM 44.1°F6.7°C 36.5°F2.5°C 75% 25.0 mph SSE40.2 kmh SSE 37.0 mph59.5 kmh 29.91 in1012.9 mb 0.00 in0.0 mm 0.00 in0.0 mm 0.02 in0.5 mm
02:27 PM 44.1°F6.7°C 36.9°F2.7°C 76% 25.0 mph SSE40.2 kmh SSE 37.0 mph59.5 kmh 29.91 in1012.9 mb 0.00 in0.0 mm 0.00 in0.0 mm 0.02 in0.5 mm
02:30 PM 43.9°F6.6°C 37.2°F2.9°C 77% 25.0 mph SSE40.2 kmh SSE 37.0 mph59.5 kmh 29.91 in1012.9 mb 0.00 in0.0 mm 0.00 in0.0 mm 0.02 in0.5 mm
02:33 PM 43.9°F6.6°C 37.4°F3.0°C 78% 25.0 mph SSE40.2 kmh SSE 37.0 mph59.5 kmh 29.91 in1012.9 mb 0.00 in0.0 mm 0.00 in0.0 mm 0.02 in0.5 mm
02:36 PM 43.9°F6.6°C 37.4°F3.0°C 78% 25.0 mph SSE40.2 kmh SSE 36.0 mph57.9 kmh 29.91 in1012.9 mb 0.00 in0.0 mm 0.00 in0.0 mm 0.02 in0.5 mm
02:39 PM 43.9°F6.6°C 37.8°F3.2°C 79% 24.0 mph SSE38.6 kmh SSE 34.0 mph54.7 kmh 29.91 in1012.9 mb 0.00 in0.0 mm 0.00 in0.0 mm 0.02 in0.5 mm
02:42 PM 43.9°F6.6°C 36.9°F2.7°C 76% 24.0 mph SSE38.6 kmh SSE 36.0 mph57.9 kmh 29.91 in1012.9 mb 0.00 in0.0 mm 0.00 in0.0 mm 0.02 in0.5 mm
02:45 PM 44.1°F6.7°C 36.7°F2.6°C 75% 25.0 mph SSE40.2 kmh SSE 36.0 mph57.9 kmh 29.91 in1012.9 mb 0.00 in0.0 mm 0.00 in0.0 mm 0.02 in0.5 mm
02:48 PM 44.1°F6.7°C 36.7°F2.6°C 75% 25.0 mph SSE40.2 kmh SSE 37.0 mph59.5 kmh 29.90 in1012.5 mb 0.00 in0.0 mm 0.00 in0.0 mm 0.02 in0.5 mm
02:51 PM 44.1°F6.7°C 36.5°F2.5°C 75% 24.0 mph SSE38.6 kmh SSE 37.0 mph59.5 kmh 29.91 in1012.9 mb 0.00 in0.0 mm 0.00 in0.0 mm 0.02 in0.5 mm
02:54 PM 44.1°F6.7°C 36.5°F2.5°C 75% 23.0 mph SSE37.0 kmh SSE 37.0 mph59.5 kmh 29.91 in1012.9 mb 0.00 in0.0 mm 0.00 in0.0 mm 0.02 in0.5 mm
02:57 PM 43.9°F6.6°C 36.5°F2.5°C 75% 22.0 mph SSE35.4 kmh SSE 35.0 mph56.3 kmh 29.91 in1012.9 mb 0.00 in0.0 mm 0.00 in0.0 mm 0.02 in0.5 mm
03:00 PM 44.1°F6.7°C 37.2°F2.9°C 77% 22.0 mph SSE35.4 kmh SSE 35.0 mph56.3 kmh 29.90 in1012.5 mb 0.00 in0.0 mm 0.00 in0.0 mm 0.02 in0.5 mm
03:03 PM 43.9°F6.6°C 36.9°F2.7°C 76% 23.0 mph SSE37.0 kmh SSE 35.0 mph56.3 kmh 29.90 in1012.5 mb 0.00 in0.0 mm 0.00 in0.0 mm 0.02 in0.5 mm
03:06 PM 43.9°F6.6°C 36.5°F2.5°C 75% 23.0 mph SSE37.0 kmh SSE 34.0 mph54.7 kmh 29.90 in1012.5 mb 0.00 in0.0 mm 0.00 in0.0 mm 0.02 in0.5 mm
03:09 PM 43.9°F6.6°C 37.2°F2.9°C 77% 23.0 mph SSE37.0 kmh SSE 33.0 mph53.1 kmh 29.90 in1012.5 mb 0.00 in0.0 mm 0.00 in0.0 mm 0.02 in0.5 mm
03:12 PM 43.9°F6.6°C 37.2°F2.9°C 77% 23.0 mph SSE37.0 kmh SSE 33.0 mph53.1 kmh 29.90 in1012.5 mb 0.00 in0.0 mm 0.00 in0.0 mm 0.02 in0.5 mm
03:15 PM 43.9°F6.6°C 37.4°F3.0°C 78% 22.0 mph SSE35.4 kmh SSE 33.0 mph53.1 kmh 29.90 in1012.5 mb 0.00 in0.0 mm 0.00 in0.0 mm 0.02 in0.5 mm
03:18 PM 43.9°F6.6°C 37.4°F3.0°C 78% 22.0 mph SSE35.4 kmh SSE 35.0 mph56.3 kmh 29.90 in1012.5 mb 0.00 in0.0 mm 0.00 in0.0 mm 0.02 in0.5 mm
03:21 PM 43.9°F6.6°C 37.4°F3.0°C 78% 23.0 mph SSE37.0 kmh SSE 35.0 mph56.3 kmh 29.90 in1012.5 mb 0.00 in0.0 mm 0.00 in0.0 mm 0.02 in0.5 mm
03:24 PM 43.7°F6.5°C 37.2°F2.9°C 78% 23.0 mph SSE37.0 kmh SSE 35.0 mph56.3 kmh 29.90 in1012.5 mb 0.00 in0.0 mm 0.00 in0.0 mm 0.02 in0.5 mm
03:27 PM 43.7°F6.5°C 37.2°F2.9°C 78% 24.0 mph SSE38.6 kmh SSE 35.0 mph56.3 kmh 29.90 in1012.5 mb 0.00 in0.0 mm 0.00 in0.0 mm 0.02 in0.5 mm
03:30 PM 43.9°F6.6°C 37.4°F3.0°C 78% 24.0 mph SSE38.6 kmh SSE 33.0 mph53.1 kmh 29.90 in1012.5 mb 0.00 in0.0 mm 0.00 in0.0 mm 0.02 in0.5 mm
03:33 PM 43.9°F6.6°C 37.4°F3.0°C 78% 24.0 mph SSE38.6 kmh SSE 33.0 mph53.1 kmh 29.90 in1012.5 mb 0.00 in0.0 mm 0.00 in0.0 mm 0.02 in0.5 mm
03:36 PM 43.7°F6.5°C 37.0°F2.8°C 77% 25.0 mph SSE40.2 kmh SSE 39.0 mph62.8 kmh 29.90 in1012.5 mb 0.00 in0.0 mm 0.00 in0.0 mm 0.02 in0.5 mm
03:39 PM 43.7°F6.5°C 37.0°F2.8°C 77% 25.0 mph SSE40.2 kmh SSE 39.0 mph62.8 kmh 29.90 in1012.5 mb 0.00 in0.0 mm 0.00 in0.0 mm 0.02 in0.5 mm
03:42 PM 43.7°F6.5°C 36.7°F2.6°C 76% 25.0 mph SSE40.2 kmh SSE 39.0 mph62.8 kmh 29.90 in1012.5 mb 0.00 in0.0 mm 0.00 in0.0 mm 0.02 in0.5 mm
03:45 PM 43.7°F6.5°C 37.0°F2.8°C 77% 25.0 mph SSE40.2 kmh SSE 39.0 mph62.8 kmh 29.90 in1012.5 mb 0.00 in0.0 mm 0.00 in0.0 mm 0.02 in0.5 mm
03:48 PM 43.9°F6.6°C 37.0°F2.8°C 77% 24.0 mph SE38.6 kmh SE 36.0 mph57.9 kmh 29.90 in1012.5 mb 0.00 in0.0 mm 0.00 in0.0 mm 0.02 in0.5 mm
03:51 PM 43.9°F6.6°C 37.0°F2.8°C 77% 24.0 mph SE38.6 kmh SE 34.0 mph54.7 kmh 29.90 in1012.5 mb 0.00 in0.0 mm 0.00 in0.0 mm 0.02 in0.5 mm
03:54 PM 43.9°F6.6°C 37.0°F2.8°C 77% 23.0 mph SE37.0 kmh SE 34.0 mph54.7 kmh 29.90 in1012.5 mb 0.00 in0.0 mm 0.00 in0.0 mm 0.02 in0.5 mm
03:57 PM 43.9°F6.6°C 37.0°F2.8°C 77% 22.0 mph SE35.4 kmh SE 34.0 mph54.7 kmh 29.90 in1012.5 mb 0.00 in0.0 mm 0.00 in0.0 mm 0.02 in0.5 mm
04:00 PM 43.9°F6.6°C 37.0°F2.8°C 77% 23.0 mph SE37.0 kmh SE 36.0 mph57.9 kmh 29.89 in1012.2 mb 0.00 in0.0 mm 0.00 in0.0 mm 0.02 in0.5 mm
04:03 PM 43.9°F6.6°C 37.0°F2.8°C 77% 23.0 mph SE37.0 kmh SE 37.0 mph59.5 kmh 29.89 in1012.2 mb 0.00 in0.0 mm 0.00 in0.0 mm 0.02 in0.5 mm
04:06 PM 43.9°F6.6°C 37.0°F2.8°C 77% 25.0 mph SSE40.2 kmh SSE 37.0 mph59.5 kmh 29.89 in1012.2 mb 0.00 in0.0 mm 0.00 in0.0 mm 0.02 in0.5 mm
04:09 PM 43.9°F6.6°C 37.0°F2.8°C 77% 26.0 mph SSE41.8 kmh SSE 37.0 mph59.5 kmh 29.89 in1012.2 mb 0.00 in0.0 mm 0.00 in0.0 mm 0.02 in0.5 mm
04:12 PM 43.7°F6.5°C 36.7°F2.6°C 76% 26.0 mph SSE41.8 kmh SSE 39.0 mph62.8 kmh 29.89 in1012.2 mb 0.00 in0.0 mm 0.00 in0.0 mm 0.02 in0.5 mm
04:15 PM 43.7°F6.5°C 36.3°F2.4°C 75% 26.0 mph SSE41.8 kmh SSE 39.0 mph62.8 kmh 29.89 in1012.2 mb 0.00 in0.0 mm 0.00 in0.0 mm 0.02 in0.5 mm
04:18 PM 43.7°F6.5°C 36.3°F2.4°C 75% 26.0 mph SSE41.8 kmh SSE 39.0 mph62.8 kmh 29.89 in1012.2 mb 0.00 in0.0 mm 0.00 in0.0 mm 0.02 in0.5 mm
04:21 PM 43.7°F6.5°C 36.3°F2.4°C 75% 26.0 mph SSE41.8 kmh SSE 39.0 mph62.8 kmh 29.89 in1012.2 mb 0.00 in0.0 mm 0.00 in0.0 mm 0.02 in0.5 mm
04:24 PM 43.9°F6.6°C 36.3°F2.4°C 75% 26.0 mph SSE41.8 kmh SSE 34.0 mph54.7 kmh 29.89 in1012.2 mb 0.00 in0.0 mm 0.00 in0.0 mm 0.02 in0.5 mm
04:27 PM 43.9°F6.6°C 36.7°F2.6°C 76% 24.0 mph SSE38.6 kmh SSE 34.0 mph54.7 kmh 29.90 in1012.5 mb 0.00 in0.0 mm 0.00 in0.0 mm 0.02 in0.5 mm
04:30 PM 43.9°F6.6°C 36.9°F2.7°C 76% 23.0 mph SSE37.0 kmh SSE 34.0 mph54.7 kmh 29.89 in1012.2 mb 0.00 in0.0 mm 0.00 in0.0 mm 0.02 in0.5 mm
04:33 PM 43.7°F6.5°C 36.0°F2.2°C 74% 23.0 mph SSE37.0 kmh SSE 34.0 mph54.7 kmh 29.89 in1012.2 mb 0.00 in0.0 mm 0.00 in0.0 mm 0.02 in0.5 mm
04:36 PM 43.7°F6.5°C 35.6°F2.0°C 73% 24.0 mph SE38.6 kmh SE 35.0 mph56.3 kmh 29.90 in1012.5 mb 0.00 in0.0 mm 0.00 in0.0 mm 0.02 in0.5 mm
04:39 PM 43.7°F6.5°C 35.6°F2.0°C 73% 25.0 mph SE40.2 kmh SE 35.0 mph56.3 kmh 29.89 in1012.2 mb 0.00 in0.0 mm 0.00 in0.0 mm 0.02 in0.5 mm
04:42 PM 43.7°F6.5°C 36.0°F2.2°C 74% 24.0 mph SSE38.6 kmh SSE 35.0 mph56.3 kmh 29.89 in1012.2 mb 0.00 in0.0 mm 0.00 in0.0 mm 0.02 in0.5 mm
04:45 PM 43.7°F6.5°C 36.3°F2.4°C 75% 23.0 mph SSE37.0 kmh SSE 34.0 mph54.7 kmh 29.90 in1012.5 mb 0.00 in0.0 mm 0.00 in0.0 mm 0.02 in0.5 mm
04:48 PM 43.7°F6.5°C 36.3°F2.4°C 75% 23.0 mph SSE37.0 kmh SSE 34.0 mph54.7 kmh 29.90 in1012.5 mb 0.00 in0.0 mm 0.00 in0.0 mm 0.02 in0.5 mm
04:51 PM 43.7°F6.5°C 36.7°F2.6°C 76% 24.0 mph SSE38.6 kmh SSE 34.0 mph54.7 kmh 29.89 in1012.2 mb 0.00 in0.0 mm 0.00 in0.0 mm 0.02 in0.5 mm
04:54 PM 43.5°F6.4°C 36.5°F2.5°C 76% 25.0 mph SSE40.2 kmh SSE 37.0 mph59.5 kmh 29.90 in1012.5 mb 0.00 in0.0 mm 0.00 in0.0 mm 0.02 in0.5 mm
04:57 PM 43.7°F6.5°C 36.7°F2.6°C 76% 25.0 mph SSE40.2 kmh SSE 37.0 mph59.5 kmh 29.90 in1012.5 mb 0.00 in0.0 mm 0.00 in0.0 mm 0.02 in0.5 mm
05:00 PM 43.5°F6.4°C 36.5°F2.5°C 76% 23.0 mph SE37.0 kmh SE 37.0 mph59.5 kmh 29.89 in1012.2 mb 0.00 in0.0 mm 0.00 in0.0 mm 0.02 in0.5 mm
05:03 PM 43.5°F6.4°C 36.5°F2.5°C 76% 24.0 mph SE38.6 kmh SE 37.0 mph59.5 kmh 29.89 in1012.2 mb 0.00 in0.0 mm 0.00 in0.0 mm 0.02 in0.5 mm
05:06 PM 43.5°F6.4°C 36.5°F2.5°C 76% 25.0 mph SE40.2 kmh SE 37.0 mph59.5 kmh 29.89 in1012.2 mb 0.00 in0.0 mm 0.00 in0.0 mm 0.02 in0.5 mm
05:09 PM 43.5°F6.4°C 36.5°F2.5°C 76% 27.0 mph SSE43.5 kmh SSE 42.0 mph67.6 kmh 29.89 in1012.2 mb 0.00 in0.0 mm 0.00 in0.0 mm 0.02 in0.5 mm
05:12 PM 43.3°F6.3°C 35.6°F2.0°C 74% 28.0 mph SSE45.1 kmh SSE 42.0 mph67.6 kmh 29.89 in1012.2 mb 0.00 in0.0 mm 0.00 in0.0 mm 0.02 in0.5 mm
05:15 PM 43.5°F6.4°C 35.8°F2.1°C 74% 27.0 mph SSE43.5 kmh SSE 42.0 mph67.6 kmh 29.89 in1012.2 mb 0.00 in0.0 mm 0.00 in0.0 mm 0.02 in0.5 mm
05:18 PM 43.3°F6.3°C 35.6°F2.0°C 74% 26.0 mph SSE41.8 kmh SSE 40.0 mph64.4 kmh 29.89 in1012.2 mb 0.00 in0.0 mm 0.00 in0.0 mm 0.02 in0.5 mm
05:21 PM 43.5°F6.4°C 36.1°F2.3°C 75% 26.0 mph SSE41.8 kmh SSE 37.0 mph59.5 kmh 29.89 in1012.2 mb 0.00 in0.0 mm 0.00 in0.0 mm 0.02 in0.5 mm
05:24 PM 43.5°F6.4°C 36.5°F2.5°C 76% 25.0 mph SSE40.2 kmh SSE 37.0 mph59.5 kmh 29.89 in1012.2 mb 0.00 in0.0 mm 0.00 in0.0 mm 0.02 in0.5 mm
05:27 PM 43.5°F6.4°C 37.2°F2.9°C 78% 24.0 mph SSE38.6 kmh SSE 36.0 mph57.9 kmh 29.89 in1012.2 mb 0.00 in0.0 mm 0.00 in0.0 mm 0.02 in0.5 mm
05:30 PM 43.5°F6.4°C 37.2°F2.9°C 78% 23.0 mph SSE37.0 kmh SSE 35.0 mph56.3 kmh 29.89 in1012.2 mb 0.00 in0.0 mm 0.00 in0.0 mm 0.02 in0.5 mm
05:33 PM 43.5°F6.4°C 37.0°F2.8°C 78% 22.0 mph SSE35.4 kmh SSE 33.0 mph53.1 kmh 29.89 in1012.2 mb 0.00 in0.0 mm 0.00 in0.0 mm 0.02 in0.5 mm
05:36 PM 43.3°F6.3°C 36.3°F2.4°C 76% 23.0 mph SSE37.0 kmh SSE 36.0 mph57.9 kmh 29.89 in1012.2 mb 0.00 in0.0 mm 0.00 in0.0 mm 0.02 in0.5 mm
05:39 PM 43.3°F6.3°C 35.6°F2.0°C 74% 24.0 mph SSE38.6 kmh SSE 37.0 mph59.5 kmh 29.89 in1012.2 mb 0.00 in0.0 mm 0.00 in0.0 mm 0.02 in0.5 mm
05:42 PM 43.3°F6.3°C 35.6°F2.0°C 74% 24.0 mph SSE38.6 kmh SSE 37.0 mph59.5 kmh 29.89 in1012.2 mb 0.00 in0.0 mm 0.00 in0.0 mm 0.02 in0.5 mm
05:45 PM 43.3°F6.3°C 35.6°F2.0°C 74% 23.0 mph SSE37.0 kmh SSE 37.0 mph59.5 kmh 29.89 in1012.2 mb 0.00 in0.0 mm 0.00 in0.0 mm 0.02 in0.5 mm
05:48 PM 43.3°F6.3°C 36.0°F2.2°C 75% 23.0 mph SSE37.0 kmh SSE 34.0 mph54.7 kmh 29.89 in1012.2 mb 0.00 in0.0 mm 0.00 in0.0 mm 0.02 in0.5 mm
05:51 PM 43.3°F6.3°C 36.3°F2.4°C 76% 23.0 mph SSE37.0 kmh SSE 36.0 mph57.9 kmh 29.89 in1012.2 mb 0.00 in0.0 mm 0.00 in0.0 mm 0.02 in0.5 mm
05:54 PM 43.3°F6.3°C 36.3°F2.4°C 76% 24.0 mph SSE38.6 kmh SSE 36.0 mph57.9 kmh 29.89 in1012.2 mb 0.00 in0.0 mm 0.00 in0.0 mm 0.02 in0.5 mm
05:57 PM 43.3°F6.3°C 36.7°F2.6°C 77% 23.0 mph SSE37.0 kmh SSE 36.0 mph57.9 kmh 29.89 in1012.2 mb 0.00 in0.0 mm 0.00 in0.0 mm 0.02 in0.5 mm
06:00 PM 43.3°F6.3°C 36.5°F2.5°C 77% 21.0 mph SE33.8 kmh SE 33.0 mph53.1 kmh 29.89 in1012.2 mb 0.00 in0.0 mm 0.00 in0.0 mm 0.02 in0.5 mm
06:03 PM 43.3°F6.3°C 36.5°F2.5°C 77% 20.0 mph SE32.2 kmh SE 29.0 mph46.7 kmh 29.89 in1012.2 mb 0.00 in0.0 mm 0.00 in0.0 mm 0.02 in0.5 mm
06:06 PM 43.2°F6.2°C 36.5°F2.5°C 77% 20.0 mph SE32.2 kmh SE 32.0 mph51.5 kmh 29.89 in1012.2 mb 0.00 in0.0 mm 0.00 in0.0 mm 0.02 in0.5 mm
06:09 PM 43.2°F6.2°C 36.5°F2.5°C 77% 21.0 mph SE33.8 kmh SE 33.0 mph53.1 kmh 29.89 in1012.2 mb 0.00 in0.0 mm 0.00 in0.0 mm 0.02 in0.5 mm
06:12 PM 43.3°F6.3°C 36.5°F2.5°C 77% 24.0 mph SE38.6 kmh SE 35.0 mph56.3 kmh 29.89 in1012.2 mb 0.00 in0.0 mm 0.00 in0.0 mm 0.02 in0.5 mm
06:15 PM 43.3°F6.3°C 36.5°F2.5°C 77% 24.0 mph SE38.6 kmh SE 35.0 mph56.3 kmh 29.89 in1012.2 mb 0.00 in0.0 mm 0.00 in0.0 mm 0.02 in0.5 mm
06:18 PM 43.2°F6.2°C 36.1°F2.3°C 76% 24.0 mph SSE38.6 kmh SSE 35.0 mph56.3 kmh 29.89 in1012.2 mb 0.00 in0.0 mm 0.00 in0.0 mm 0.02 in0.5 mm
06:21 PM 43.2°F6.2°C 35.8°F2.1°C 75% 23.0 mph SSE37.0 kmh SSE 34.0 mph54.7 kmh 29.89 in1012.2 mb 0.00 in0.0 mm 0.00 in0.0 mm 0.02 in0.5 mm
06:24 PM 43.3°F6.3°C 36.0°F2.2°C 75% 23.0 mph SSE37.0 kmh SSE 34.0 mph54.7 kmh 29.89 in1012.2 mb 0.00 in0.0 mm 0.00 in0.0 mm 0.02 in0.5 mm
06:27 PM 43.3°F6.3°C 36.3°F2.4°C 76% 24.0 mph SSE38.6 kmh SSE 34.0 mph54.7 kmh 29.89 in1012.2 mb 0.00 in0.0 mm 0.00 in0.0 mm 0.02 in0.5 mm
06:30 PM 43.3°F6.3°C 36.7°F2.6°C 77% 25.0 mph SSE40.2 kmh SSE 38.0 mph61.2 kmh 29.89 in1012.2 mb 0.00 in0.0 mm 0.00 in0.0 mm 0.02 in0.5 mm
06:33 PM 43.3°F6.3°C 36.0°F2.2°C 75% 25.0 mph SSE40.2 kmh SSE 38.0 mph61.2 kmh 29.89 in1012.2 mb 0.00 in0.0 mm 0.00 in0.0 mm 0.02 in0.5 mm
06:36 PM 43.3°F6.3°C 36.0°F2.2°C 75% 26.0 mph SSE41.8 kmh SSE 38.0 mph61.2 kmh 29.89 in1012.2 mb 0.00 in0.0 mm 0.00 in0.0 mm 0.02 in0.5 mm
06:39 PM 43.3°F6.3°C 35.6°F2.0°C 74% 26.0 mph SSE41.8 kmh SSE 38.0 mph61.2 kmh 29.89 in1012.2 mb 0.00 in0.0 mm 0.00 in0.0 mm 0.02 in0.5 mm
06:42 PM 43.3°F6.3°C 35.6°F2.0°C 74% 24.0 mph SSE38.6 kmh SSE 38.0 mph61.2 kmh 29.89 in1012.2 mb 0.00 in0.0 mm 0.00 in0.0 mm 0.02 in0.5 mm
06:45 PM 43.3°F6.3°C 36.0°F2.2°C 75% 23.0 mph SSE37.0 kmh SSE 37.0 mph59.5 kmh 29.89 in1012.2 mb 0.00 in0.0 mm 0.00 in0.0 mm 0.02 in0.5 mm
06:48 PM 43.3°F6.3°C 36.3°F2.4°C 76% 21.0 mph SE33.8 kmh SE 32.0 mph51.5 kmh 29.89 in1012.2 mb 0.00 in0.0 mm 0.00 in0.0 mm 0.02 in0.5 mm
06:51 PM 43.2°F6.2°C 36.1°F2.3°C 76% 22.0 mph SE35.4 kmh SE 34.0 mph54.7 kmh 29.89 in1012.2 mb 0.00 in0.0 mm 0.00 in0.0 mm 0.02 in0.5 mm
06:54 PM 43.2°F6.2°C 35.8°F2.1°C 75% 22.0 mph SE35.4 kmh SE 34.0 mph54.7 kmh 29.89 in1012.2 mb 0.00 in0.0 mm 0.00 in0.0 mm 0.02 in0.5 mm
06:57 PM 43.2°F6.2°C 35.4°F1.9°C 74% 23.0 mph SE37.0 kmh SE 34.0 mph54.7 kmh 29.89 in1012.2 mb 0.00 in0.0 mm 0.00 in0.0 mm 0.02 in0.5 mm
07:00 PM 43.0°F6.1°C 35.2°F1.8°C 74% 22.0 mph SE35.4 kmh SE 34.0 mph54.7 kmh 29.89 in1012.2 mb 0.00 in0.0 mm 0.00 in0.0 mm 0.02 in0.5 mm
07:03 PM 43.0°F6.1°C 35.6°F2.0°C 75% 24.0 mph SE38.6 kmh SE 42.0 mph67.6 kmh 29.89 in1012.2 mb 0.00 in0.0 mm 0.00 in0.0 mm 0.02 in0.5 mm
07:06 PM 43.0°F6.1°C 35.2°F1.8°C 74% 25.0 mph SE40.2 kmh SE 42.0 mph67.6 kmh 29.89 in1012.2 mb 0.00 in0.0 mm 0.00 in0.0 mm 0.02 in0.5 mm
07:09 PM 43.0°F6.1°C 35.2°F1.8°C 74% 25.0 mph SE40.2 kmh SE 42.0 mph67.6 kmh 29.89 in1012.2 mb 0.00 in0.0 mm 0.00 in0.0 mm 0.02 in0.5 mm
07:12 PM 42.8°F6.0°C 35.4°F1.9°C 75% 23.0 mph SE37.0 kmh SE 40.0 mph64.4 kmh 29.90 in1012.5 mb 0.00 in0.0 mm 0.00 in0.0 mm 0.02 in0.5 mm
07:15 PM 42.8°F6.0°C 35.4°F1.9°C 75% 21.0 mph SE33.8 kmh SE 32.0 mph51.5 kmh 29.89 in1012.2 mb 0.00 in0.0 mm 0.00 in0.0 mm 0.02 in0.5 mm
07:18 PM 42.8°F6.0°C 35.8°F2.1°C 76% 20.0 mph SE32.2 kmh SE 32.0 mph51.5 kmh 29.89 in1012.2 mb 0.00 in0.0 mm 0.00 in0.0 mm 0.02 in0.5 mm
07:21 PM 43.0°F6.1°C 36.1°F2.3°C 77% 21.0 mph SE33.8 kmh SE 32.0 mph51.5 kmh 29.89 in1012.2 mb 0.00 in0.0 mm 0.00 in0.0 mm 0.02 in0.5 mm
07:24 PM 42.8°F6.0°C 35.8°F2.1°C 76% 22.0 mph SE35.4 kmh SE 34.0 mph54.7 kmh 29.89 in1012.2 mb 0.00 in0.0 mm 0.00 in0.0 mm 0.02 in0.5 mm
07:27 PM 42.8°F6.0°C 35.8°F2.1°C 76% 23.0 mph SE37.0 kmh SE 34.0 mph54.7 kmh 29.89 in1012.2 mb 0.00 in0.0 mm 0.00 in0.0 mm 0.02 in0.5 mm
07:30 PM 42.8°F6.0°C 35.4°F1.9°C 75% 23.0 mph SE37.0 kmh SE 34.0 mph54.7 kmh 29.89 in1012.2 mb 0.00 in0.0 mm 0.00 in0.0 mm 0.02 in0.5 mm
07:33 PM 42.8°F6.0°C 35.4°F1.9°C 75% 22.0 mph SE35.4 kmh SE 34.0 mph54.7 kmh 29.89 in1012.2 mb 0.00 in0.0 mm 0.00 in0.0 mm 0.02 in0.5 mm
07:36 PM 42.6°F5.9°C 35.1°F1.7°C 74% 24.0 mph SE38.6 kmh SE 40.0 mph64.4 kmh 29.89 in1012.2 mb 0.00 in0.0 mm 0.00 in0.0 mm 0.02 in0.5 mm
07:39 PM 42.6°F5.9°C 35.1°F1.7°C 74% 24.0 mph SE38.6 kmh SE 40.0 mph64.4 kmh 29.89 in1012.2 mb 0.00 in0.0 mm 0.00 in0.0 mm 0.02 in0.5 mm
07:42 PM 42.6°F5.9°C 35.1°F1.7°C 74% 25.0 mph SE40.2 kmh SE 40.0 mph64.4 kmh 29.89 in1012.2 mb 0.00 in0.0 mm 0.00 in0.0 mm 0.02 in0.5 mm
07:45 PM 42.6°F5.9°C 34.9°F1.6°C 74% 24.0 mph SE38.6 kmh SE 37.0 mph59.5 kmh 29.89 in1012.2 mb 0.00 in0.0 mm 0.00 in0.0 mm 0.02 in0.5 mm
07:48 PM 42.6°F5.9°C 35.2°F1.8°C 75% 24.0 mph SE38.6 kmh SE 37.0 mph59.5 kmh 29.89 in1012.2 mb 0.00 in0.0 mm 0.00 in0.0 mm 0.02 in0.5 mm
07:51 PM 42.6°F5.9°C 35.2°F1.8°C 75% 24.0 mph SE38.6 kmh SE 37.0 mph59.5 kmh 29.89 in1012.2 mb 0.00 in0.0 mm 0.00 in0.0 mm 0.02 in0.5 mm
07:54 PM 42.6°F5.9°C 35.6°F2.0°C 76% 24.0 mph SE38.6 kmh SE 35.0 mph56.3 kmh 29.89 in1012.2 mb 0.00 in0.0 mm 0.00 in0.0 mm 0.02 in0.5 mm
07:57 PM 42.6°F5.9°C 34.9°F1.6°C 74% 26.0 mph SE41.8 kmh SE 37.0 mph59.5 kmh 29.89 in1012.2 mb 0.00 in0.0 mm 0.00 in0.0 mm 0.02 in0.5 mm
08:00 PM 42.4°F5.8°C 34.9°F1.6°C 74% 27.0 mph SSE43.5 kmh SSE 37.0 mph59.5 kmh 29.89 in1012.2 mb 0.00 in0.0 mm 0.00 in0.0 mm 0.02 in0.5 mm
08:03 PM 42.4°F5.8°C 35.1°F1.7°C 75% 26.0 mph SSE41.8 kmh SSE 37.0 mph59.5 kmh 29.89 in1012.2 mb 0.00 in0.0 mm 0.00 in0.0 mm 0.02 in0.5 mm
08:06 PM 42.6°F5.9°C 35.6°F2.0°C 76% 22.0 mph SSE35.4 kmh SSE 36.0 mph57.9 kmh 29.89 in1012.2 mb 0.00 in0.0 mm 0.00 in0.0 mm 0.02 in0.5 mm
08:09 PM 42.6°F5.9°C 35.6°F2.0°C 76% 21.0 mph SSE33.8 kmh SSE 37.0 mph59.5 kmh 29.89 in1012.2 mb 0.00 in0.0 mm 0.00 in0.0 mm 0.02 in0.5 mm
08:12 PM 42.6°F5.9°C 35.6°F2.0°C 76% 21.0 mph SSE33.8 kmh SSE 37.0 mph59.5 kmh 29.89 in1012.2 mb 0.00 in0.0 mm 0.00 in0.0 mm 0.02 in0.5 mm
08:15 PM 42.6°F5.9°C 35.6°F2.0°C 76% 21.0 mph SE33.8 kmh SE 37.0 mph59.5 kmh 29.89 in1012.2 mb 0.00 in0.0 mm 0.00 in0.0 mm 0.02 in0.5 mm
08:18 PM 42.6°F5.9°C 35.6°F2.0°C 76% 22.0 mph SE35.4 kmh SE 37.0 mph59.5 kmh 29.89 in1012.2 mb 0.00 in0.0 mm 0.00 in0.0 mm 0.02 in0.5 mm
08:21 PM 42.8°F6.0°C 36.1°F2.3°C 77% 21.0 mph SE33.8 kmh SE 34.0 mph54.7 kmh 29.89 in1012.2 mb 0.00 in0.0 mm 0.00 in0.0 mm 0.02 in0.5 mm
08:24 PM 43.0°F6.1°C 36.1°F2.3°C 77% 21.0 mph SSE33.8 kmh SSE 34.0 mph54.7 kmh 29.89 in1012.2 mb 0.00 in0.0 mm 0.00 in0.0 mm 0.02 in0.5 mm
08:27 PM 42.8°F6.0°C 35.8°F2.1°C 76% 21.0 mph SE33.8 kmh SE 34.0 mph54.7 kmh 29.89 in1012.2 mb 0.00 in0.0 mm 0.00 in0.0 mm 0.02 in0.5 mm
08:30 PM 42.8°F6.0°C 35.8°F2.1°C 76% 21.0 mph SE33.8 kmh SE 35.0 mph56.3 kmh 29.89 in1012.2 mb 0.00 in0.0 mm 0.00 in0.0 mm 0.02 in0.5 mm
08:33 PM 42.8°F6.0°C 35.8°F2.1°C 76% 22.0 mph SE35.4 kmh SE 39.0 mph62.8 kmh 29.89 in1012.2 mb 0.00 in0.0 mm 0.00 in0.0 mm 0.02 in0.5 mm
08:36 PM 42.8°F6.0°C 35.8°F2.1°C 76% 24.0 mph SE38.6 kmh SE 39.0 mph62.8 kmh 29.88 in1011.9 mb 0.00 in0.0 mm 0.00 in0.0 mm 0.02 in0.5 mm
08:39 PM 42.8°F6.0°C 35.8°F2.1°C 76% 26.0 mph SSE41.8 kmh SSE 39.0 mph62.8 kmh 29.89 in1012.2 mb 0.00 in0.0 mm 0.00 in0.0 mm 0.02 in0.5 mm
08:42 PM 42.8°F6.0°C 35.8°F2.1°C 76% 26.0 mph SSE41.8 kmh SSE 38.0 mph61.2 kmh 29.89 in1012.2 mb 0.00 in0.0 mm 0.00 in0.0 mm 0.02 in0.5 mm
08:45 PM 42.8°F6.0°C 35.8°F2.1°C 76% 26.0 mph SSE41.8 kmh SSE 37.0 mph59.5 kmh 29.89 in1012.2 mb 0.00 in0.0 mm 0.00 in0.0 mm 0.02 in0.5 mm
08:48 PM 42.8°F6.0°C 35.4°F1.9°C 75% 25.0 mph SSE40.2 kmh SSE 40.0 mph64.4 kmh 29.89 in1012.2 mb 0.00 in0.0 mm 0.00 in0.0 mm 0.02 in0.5 mm
08:51 PM 42.6°F5.9°C 35.1°F1.7°C 74% 25.0 mph SSE40.2 kmh SSE 40.0 mph64.4 kmh 29.89 in1012.2 mb 0.00 in0.0 mm 0.00 in0.0 mm 0.02 in0.5 mm
08:54 PM 42.6°F5.9°C 34.9°F1.6°C 74% 26.0 mph SSE41.8 kmh SSE 40.0 mph64.4 kmh 29.89 in1012.2 mb 0.00 in0.0 mm 0.00 in0.0 mm 0.02 in0.5 mm
08:57 PM 42.4°F5.8°C 34.9°F1.6°C 74% 27.0 mph SSE43.5 kmh SSE 38.0 mph61.2 kmh 29.89 in1012.2 mb 0.00 in0.0 mm 0.00 in0.0 mm 0.02 in0.5 mm
09:00 PM 42.4°F5.8°C 34.9°F1.6°C 74% 26.0 mph SSE41.8 kmh SSE 39.0 mph62.8 kmh 29.89 in1012.2 mb 0.00 in0.0 mm 0.00 in0.0 mm 0.02 in0.5 mm
09:03 PM 42.6°F5.9°C 35.2°F1.8°C 75% 27.0 mph SSE43.5 kmh SSE 39.0 mph62.8 kmh 29.89 in1012.2 mb 0.00 in0.0 mm 0.00 in0.0 mm 0.02 in0.5 mm
09:06 PM 42.4°F5.8°C 34.5°F1.4°C 73% 27.0 mph SSE43.5 kmh SSE 39.0 mph62.8 kmh 29.89 in1012.2 mb 0.00 in0.0 mm 0.00 in0.0 mm 0.02 in0.5 mm
09:09 PM 42.4°F5.8°C 34.9°F1.6°C 74% 25.0 mph SSE40.2 kmh SSE 38.0 mph61.2 kmh 29.89 in1012.2 mb 0.00 in0.0 mm 0.00 in0.0 mm 0.02 in0.5 mm
09:12 PM 42.4°F5.8°C 34.9°F1.6°C 74% 25.0 mph SSE40.2 kmh SSE 38.0 mph61.2 kmh 29.90 in1012.5 mb 0.00 in0.0 mm 0.00 in0.0 mm 0.02 in0.5 mm
09:15 PM 42.4°F5.8°C 34.9°F1.6°C 74% 24.0 mph SSE38.6 kmh SSE 36.0 mph57.9 kmh 29.90 in1012.5 mb 0.00 in0.0 mm 0.00 in0.0 mm 0.02 in0.5 mm
09:18 PM 42.4°F5.8°C 34.9°F1.6°C 74% 24.0 mph SSE38.6 kmh SSE 36.0 mph57.9 kmh 29.90 in1012.5 mb 0.00 in0.0 mm 0.00 in0.0 mm 0.02 in0.5 mm
09:21 PM 42.6°F5.9°C 34.9°F1.6°C 74% 24.0 mph SSE38.6 kmh SSE 36.0 mph57.9 kmh 29.90 in1012.5 mb 0.00 in0.0 mm 0.00 in0.0 mm 0.02 in0.5 mm
09:24 PM 42.6°F5.9°C 35.2°F1.8°C 75% 25.0 mph SSE40.2 kmh SSE 36.0 mph57.9 kmh 29.90 in1012.5 mb 0.00 in0.0 mm 0.00 in0.0 mm 0.02 in0.5 mm
09:27 PM 42.6°F5.9°C 35.2°F1.8°C 75% 25.0 mph SSE40.2 kmh SSE 41.0 mph66.0 kmh 29.90 in1012.5 mb 0.00 in0.0 mm 0.00 in0.0 mm 0.02 in0.5 mm
09:30 PM 42.6°F5.9°C 34.9°F1.6°C 74% 25.0 mph SSE40.2 kmh SSE 41.0 mph66.0 kmh 29.89 in1012.2 mb 0.00 in0.0 mm 0.00 in0.0 mm 0.02 in0.5 mm
09:33 PM 42.4°F5.8°C 34.9°F1.6°C 74% 26.0 mph SSE41.8 kmh SSE 41.0 mph66.0 kmh 29.90 in1012.5 mb 0.00 in0.0 mm 0.00 in0.0 mm 0.02 in0.5 mm
09:36 PM 42.4°F5.8°C 35.1°F1.7°C 75% 25.0 mph SE40.2 kmh SE 38.0 mph61.2 kmh 29.90 in1012.5 mb 0.00 in0.0 mm 0.00 in0.0 mm 0.02 in0.5 mm
09:39 PM 42.4°F5.8°C 35.1°F1.7°C 75% 25.0 mph SE40.2 kmh SE 38.0 mph61.2 kmh 29.90 in1012.5 mb 0.00 in0.0 mm 0.00 in0.0 mm 0.02 in0.5 mm
09:42 PM 42.6°F5.9°C 35.6°F2.0°C 76% 24.0 mph SSE38.6 kmh SSE 37.0 mph59.5 kmh 29.90 in1012.5 mb 0.00 in0.0 mm 0.00 in0.0 mm 0.02 in0.5 mm
09:45 PM 42.6°F5.9°C 35.6°F2.0°C 76% 26.0 mph SSE41.8 kmh SSE 41.0 mph66.0 kmh 29.89 in1012.2 mb 0.00 in0.0 mm 0.00 in0.0 mm 0.02 in0.5 mm
09:48 PM 42.6°F5.9°C 35.2°F1.8°C 75% 26.0 mph SSE41.8 kmh SSE 42.0 mph67.6 kmh 29.89 in1012.2 mb 0.00 in0.0 mm 0.00 in0.0 mm 0.02 in0.5 mm
09:51 PM 42.4°F5.8°C 34.9°F1.6°C 74% 26.0 mph SSE41.8 kmh SSE 42.0 mph67.6 kmh 29.90 in1012.5 mb 0.00 in0.0 mm 0.00 in0.0 mm 0.02 in0.5 mm
09:54 PM 42.4°F5.8°C 34.9°F1.6°C 74% 27.0 mph SSE43.5 kmh SSE 42.0 mph67.6 kmh 29.90 in1012.5 mb 0.00 in0.0 mm 0.00 in0.0 mm 0.02 in0.5 mm
09:57 PM 42.4°F5.8°C 35.1°F1.7°C 75% 25.0 mph SSE40.2 kmh SSE 38.0 mph61.2 kmh 29.90 in1012.5 mb 0.00 in0.0 mm 0.00 in0.0 mm 0.02 in0.5 mm
10:00 PM 42.4°F5.8°C 35.1°F1.7°C 75% 23.0 mph SSE37.0 kmh SSE 38.0 mph61.2 kmh 29.90 in1012.5 mb 0.00 in0.0 mm 0.00 in0.0 mm 0.02 in0.5 mm
10:03 PM 42.4°F5.8°C 35.4°F1.9°C 76% 21.0 mph SSE33.8 kmh SSE 33.0 mph53.1 kmh 29.90 in1012.5 mb 0.00 in0.0 mm 0.00 in0.0 mm 0.02 in0.5 mm
10:06 PM 42.4°F5.8°C 35.1°F1.7°C 75% 22.0 mph SSE35.4 kmh SSE 38.0 mph61.2 kmh 29.90 in1012.5 mb 0.00 in0.0 mm 0.00 in0.0 mm 0.02 in0.5 mm
10:09 PM 42.4°F5.8°C 34.9°F1.6°C 74% 25.0 mph SSE40.2 kmh SSE 38.0 mph61.2 kmh 29.90 in1012.5 mb 0.00 in0.0 mm 0.00 in0.0 mm 0.02 in0.5 mm
10:12 PM 42.4°F5.8°C 34.9°F1.6°C 74% 26.0 mph SSE41.8 kmh SSE 38.0 mph61.2 kmh 29.90 in1012.5 mb 0.00 in0.0 mm 0.00 in0.0 mm 0.02 in0.5 mm
10:15 PM 42.4°F5.8°C 34.9°F1.6°C 74% 26.0 mph SSE41.8 kmh SSE 35.0 mph56.3 kmh 29.90 in1012.5 mb 0.00 in0.0 mm 0.00 in0.0 mm 0.02 in0.5 mm
10:18 PM 42.4°F5.8°C 34.9°F1.6°C 74% 26.0 mph SSE41.8 kmh SSE 39.0 mph62.8 kmh 29.90 in1012.5 mb 0.00 in0.0 mm 0.00 in0.0 mm 0.02 in0.5 mm
10:21 PM 42.4°F5.8°C 34.9°F1.6°C 74% 26.0 mph SSE41.8 kmh SSE 41.0 mph66.0 kmh 29.90 in1012.5 mb 0.00 in0.0 mm 0.00 in0.0 mm 0.02 in0.5 mm
10:24 PM 42.4°F5.8°C 34.5°F1.4°C 73% 26.0 mph SSE41.8 kmh SSE 41.0 mph66.0 kmh 29.90 in1012.5 mb 0.00 in0.0 mm 0.00 in0.0 mm 0.02 in0.5 mm
10:27 PM 42.4°F5.8°C 34.3°F1.3°C 73% 25.0 mph SSE40.2 kmh SSE 41.0 mph66.0 kmh 29.90 in1012.5 mb 0.00 in0.0 mm 0.00 in0.0 mm 0.02 in0.5 mm
10:30 PM 42.4°F5.8°C 34.3°F1.3°C 73% 25.0 mph SSE40.2 kmh SSE 41.0 mph66.0 kmh 29.90 in1012.5 mb 0.00 in0.0 mm 0.00 in0.0 mm 0.02 in0.5 mm
10:33 PM 42.4°F5.8°C 34.3°F1.3°C 73% 25.0 mph SSE40.2 kmh SSE 37.0 mph59.5 kmh 29.90 in1012.5 mb 0.00 in0.0 mm 0.00 in0.0 mm 0.02 in0.5 mm
10:36 PM 42.4°F5.8°C 34.3°F1.3°C 73% 27.0 mph SSE43.5 kmh SSE 37.0 mph59.5 kmh 29.90 in1012.5 mb 0.00 in0.0 mm 0.00 in0.0 mm 0.02 in0.5 mm
10:39 PM 42.3°F5.7°C 34.0°F1.1°C 72% 27.0 mph SSE43.5 kmh SSE 41.0 mph66.0 kmh 29.90 in1012.5 mb 0.00 in0.0 mm 0.00 in0.0 mm 0.02 in0.5 mm
10:42 PM 42.3°F5.7°C 34.3°F1.3°C 73% 27.0 mph SSE43.5 kmh SSE 41.0 mph66.0 kmh 29.90 in1012.5 mb 0.00 in0.0 mm 0.00 in0.0 mm 0.02 in0.5 mm
10:45 PM 42.3°F5.7°C 33.8°F1.0°C 72% 27.0 mph SSE43.5 kmh SSE 41.0 mph66.0 kmh 29.90 in1012.5 mb 0.00 in0.0 mm 0.00 in0.0 mm 0.02 in0.5 mm
10:48 PM 42.3°F5.7°C 34.2°F1.2°C 73% 27.0 mph SSE43.5 kmh SSE 40.0 mph64.4 kmh 29.90 in1012.5 mb 0.00 in0.0 mm 0.00 in0.0 mm 0.02 in0.5 mm
10:51 PM 42.3°F5.7°C 33.8°F1.0°C 72% 27.0 mph SSE43.5 kmh SSE 40.0 mph64.4 kmh 29.90 in1012.5 mb 0.00 in0.0 mm 0.00 in0.0 mm 0.02 in0.5 mm
10:54 PM 42.3°F5.7°C 33.8°F1.0°C 72% 26.0 mph SSE41.8 kmh SSE 38.0 mph61.2 kmh 29.89 in1012.2 mb 0.00 in0.0 mm 0.00 in0.0 mm 0.02 in0.5 mm
10:57 PM 42.3°F5.7°C 34.2°F1.2°C 73% 26.0 mph SSE41.8 kmh SSE 38.0 mph61.2 kmh 29.89 in1012.2 mb 0.00 in0.0 mm 0.00 in0.0 mm 0.02 in0.5 mm
11:00 PM 42.3°F5.7°C 34.0°F1.1°C 72% 27.0 mph SSE43.5 kmh SSE 38.0 mph61.2 kmh 29.89 in1012.2 mb 0.00 in0.0 mm 0.00 in0.0 mm 0.02 in0.5 mm
11:03 PM 42.3°F5.7°C 34.3°F1.3°C 73% 27.0 mph SSE43.5 kmh SSE 38.0 mph61.2 kmh 29.90 in1012.5 mb 0.00 in0.0 mm 0.00 in0.0 mm 0.02 in0.5 mm
11:06 PM 42.3°F5.7°C 34.3°F1.3°C 73% 27.0 mph SSE43.5 kmh SSE 38.0 mph61.2 kmh 29.89 in1012.2 mb 0.00 in0.0 mm 0.00 in0.0 mm 0.02 in0.5 mm
11:09 PM 42.3°F5.7°C 34.0°F1.1°C 72% 26.0 mph SSE41.8 kmh SSE 38.0 mph61.2 kmh 29.90 in1012.5 mb 0.00 in0.0 mm 0.00 in0.0 mm 0.02 in0.5 mm
11:12 PM 42.3°F5.7°C 33.8°F1.0°C 72% 25.0 mph SSE40.2 kmh SSE 35.0 mph56.3 kmh 29.89 in1012.2 mb 0.00 in0.0 mm 0.00 in0.0 mm 0.02 in0.5 mm
11:15 PM 42.3°F5.7°C 34.3°F1.3°C 73% 25.0 mph SSE40.2 kmh SSE 35.0 mph56.3 kmh 29.89 in1012.2 mb 0.00 in0.0 mm 0.00 in0.0 mm 0.02 in0.5 mm
11:18 PM 42.3°F5.7°C 34.3°F1.3°C 73% 26.0 mph SSE41.8 kmh SSE 39.0 mph62.8 kmh 29.89 in1012.2 mb 0.00 in0.0 mm 0.00 in0.0 mm 0.02 in0.5 mm
11:21 PM 42.3°F5.7°C 34.9°F1.6°C 75% 25.0 mph SSE40.2 kmh SSE 39.0 mph62.8 kmh 29.90 in1012.5 mb 0.00 in0.0 mm 0.00 in0.0 mm 0.02 in0.5 mm
11:24 PM 42.3°F5.7°C 34.5°F1.4°C 74% 26.0 mph SSE41.8 kmh SSE 39.0 mph62.8 kmh 29.89 in1012.2 mb 0.00 in0.0 mm 0.00 in0.0 mm 0.02 in0.5 mm
11:27 PM 42.3°F5.7°C 34.5°F1.4°C 74% 26.0 mph SSE41.8 kmh SSE 38.0 mph61.2 kmh 29.90 in1012.5 mb 0.00 in0.0 mm 0.00 in0.0 mm 0.02 in0.5 mm
11:30 PM 42.3°F5.7°C 34.5°F1.4°C 74% 26.0 mph SSE41.8 kmh SSE 38.0 mph61.2 kmh 29.90 in1012.5 mb 0.00 in0.0 mm 0.00 in0.0 mm 0.02 in0.5 mm
11:33 PM 42.3°F5.7°C 34.3°F1.3°C 73% 26.0 mph SSE41.8 kmh SSE 38.0 mph61.2 kmh 29.90 in1012.5 mb 0.00 in0.0 mm 0.00 in0.0 mm 0.02 in0.5 mm
11:36 PM 42.3°F5.7°C 34.2°F1.2°C 73% 25.0 mph SSE40.2 kmh SSE 37.0 mph59.5 kmh 29.90 in1012.5 mb 0.00 in0.0 mm 0.00 in0.0 mm 0.02 in0.5 mm
11:39 PM 42.3°F5.7°C 34.2°F1.2°C 73% 25.0 mph SSE40.2 kmh SSE 37.0 mph59.5 kmh 29.90 in1012.5 mb 0.00 in0.0 mm 0.00 in0.0 mm 0.02 in0.5 mm
11:42 PM 42.3°F5.7°C 34.5°F1.4°C 74% 24.0 mph SSE38.6 kmh SSE 37.0 mph59.5 kmh 29.90 in1012.5 mb 0.00 in0.0 mm 0.00 in0.0 mm 0.02 in0.5 mm
11:45 PM 42.3°F5.7°C 34.5°F1.4°C 74% 24.0 mph SSE38.6 kmh SSE 36.0 mph57.9 kmh 29.90 in1012.5 mb 0.00 in0.0 mm 0.00 in0.0 mm 0.02 in0.5 mm
11:48 PM 42.3°F5.7°C 34.2°F1.2°C 73% 24.0 mph SSE38.6 kmh SSE 36.0 mph57.9 kmh 29.90 in1012.5 mb 0.00 in0.0 mm 0.00 in0.0 mm 0.02 in0.5 mm
11:51 PM 42.3°F5.7°C 34.2°F1.2°C 73% 25.0 mph SSE40.2 kmh SSE 37.0 mph59.5 kmh 29.90 in1012.5 mb 0.00 in0.0 mm 0.00 in0.0 mm 0.02 in0.5 mm
11:54 PM 42.3°F5.7°C 33.8°F1.0°C 72% 27.0 mph SE43.5 kmh SE 38.0 mph61.2 kmh 29.90 in1012.5 mb 0.00 in0.0 mm 0.00 in0.0 mm 0.02 in0.5 mm
11:57 PM 42.3°F5.7°C 34.2°F1.2°C 73% 27.0 mph SE43.5 kmh SE 38.0 mph61.2 kmh 29.90 in1012.5 mb 0.00 in0.0 mm 0.00 in0.0 mm 0.02 in0.5 mm